Observation data for Canadian on 01/11/2018      Previous  Date  Next       Current Mesonet Observations  Soil Data  Daily Summary Page  Observations in Plain Language
KCA1 110600Z 18009KT 11/01 A2942 RMK A01 T01100011  RH  050%=      5-min Rain = 0
KCA1 110601Z 18008KT 11/01 A2943 RMK A01 T01100011  RH  050%=      5-min Rain = 0
KCA1 110602Z 19008KT 11/01 A2943 RMK A01 T01100011  RH  050%=      5-min Rain = 0
KCA1 110603Z 18008KT 11/01 A2943 RMK A01 T01100011  RH  050%=      5-min Rain = 0
KCA1 110604Z 19008KT 11/01 A2943 RMK A01 T01100010  RH  050%=      5-min Rain = 0
KCA1 110605Z 18008KT 11/01 A2943 RMK A01 T01090010  RH  051%=      5-min Rain = 0
KCA1 110606Z 18008KT 11/01 A2943 RMK A01 T01090010  RH  051%=      5-min Rain = 0
KCA1 110607Z 18007KT 11/01 A2943 RMK A01 T01090010  RH  051%=      5-min Rain = 0
KCA1 110608Z 19006KT 11/01 A2943 RMK A01 T01090010  RH  051%=      5-min Rain = 0
KCA1 110609Z 18008KT 11/01 A2943 RMK A01 T01080010  RH  051%=      5-min Rain = 0
KCA1 110610Z 18006KT 11/01 A2943 RMK A01 T01080010  RH  051%=      5-min Rain = 0
KCA1 110611Z 18006KT 11/01 A2943 RMK A01 T01080010  RH  051%=      5-min Rain = 0
KCA1 110612Z 18006KT 11/01 A2943 RMK A01 T01070010  RH  051%=      5-min Rain = 0
KCA1 110613Z 17005KT 11/01 A2943 RMK A01 T01070010  RH  051%=      5-min Rain = 0
KCA1 110614Z 18006KT 11/01 A2943 RMK A01 T01070010  RH  051%=      5-min Rain = 0
KCA1 110615Z 18005KT 11/01 A2943 RMK A01 T01070010  RH  051%=      5-min Rain = 0
KCA1 110616Z 18005KT 11/01 A2943 RMK A01 T01060010  RH  051%=      5-min Rain = 0
KCA1 110617Z 19004KT 11/01 A2943 RMK A01 T01060010  RH  051%=      5-min Rain = 0
KCA1 110618Z 19003KT 11/01 A2943 RMK A01 T01060010  RH  051%=      5-min Rain = 0
KCA1 110619Z 19004KT 11/01 A2943 RMK A01 T01050009  RH  052%=      5-min Rain = 0
KCA1 110620Z 21003KT 11/01 A2943 RMK A01 T01050009  RH  052%=      5-min Rain = 0
KCA1 110621Z 23002KT 10/01 A2943 RMK A01 T01040009  RH  052%=      5-min Rain = 0
KCA1 110622Z 23003KT 10/01 A2943 RMK A01 T01040009  RH  052%=      5-min Rain = 0
KCA1 110623Z 25002KT 10/01 A2943 RMK A01 T01040009  RH  052%=      5-min Rain = 0
KCA1 110624Z 27002KT 10/01 A2943 RMK A01 T01030009  RH  052%=      5-min Rain = 0
KCA1 110625Z 28002KT 10/01 A2943 RMK A01 T01020009  RH  052%=      5-min Rain = 0
KCA1 110626Z 29001KT 10/01 A2943 RMK A01 T01010008  RH  053%=      5-min Rain = 0
KCA1 110627Z 31000KT 10/01 A2943 RMK A01 T01000008  RH  053%=      5-min Rain = 0
KCA1 110628Z 25001KT 10/01 A2943 RMK A01 T00990008  RH  053%=      5-min Rain = 0
KCA1 110629Z 28000KT 10/01 A2943 RMK A01 T00980008  RH  054%=      5-min Rain = 0
KCA1 110630Z 33000KT 10/01 A2943 RMK A01 T00970008  RH  054%=      5-min Rain = 0
KCA1 110631Z 00000KT 10/01 A2943 RMK A01 T00970008  RH  054%=      5-min Rain = 0
KCA1 110632Z 13000KT 10/01 A2943 RMK A01 T00960008  RH  054%=      5-min Rain = 0
KCA1 110633Z 14001KT 10/01 A2943 RMK A01 T00960008  RH  054%=      5-min Rain = 0
KCA1 110634Z 13002KT 10/01 A2943 RMK A01 T00970009  RH  054%=      5-min Rain = 0
KCA1 110635Z 14002KT 10/01 A2942 RMK A01 T00970009  RH  054%=      5-min Rain = 0
KCA1 110636Z 15003KT 10/01 A2942 RMK A01 T00990009  RH  054%=      5-min Rain = 0
KCA1 110637Z 15003KT 10/01 A2942 RMK A01 T01000010  RH  053%=      5-min Rain = 0
KCA1 110638Z 15003KT 10/01 A2942 RMK A01 T01020010  RH  053%=      5-min Rain = 0
KCA1 110639Z 15004KT 10/01 A2942 RMK A01 T01030010  RH  052%=      5-min Rain = 0
KCA1 110640Z 14004KT 10/01 A2942 RMK A01 T01030010  RH  052%=      5-min Rain = 0
KCA1 110641Z 15004KT 10/01 A2942 RMK A01 T01030009  RH  052%=      5-min Rain = 0
KCA1 110642Z 15005KT 10/01 A2942 RMK A01 T01020009  RH  052%=      5-min Rain = 0
KCA1 110643Z 15005KT 10/01 A2942 RMK A01 T01020009  RH  053%=      5-min Rain = 0
KCA1 110644Z 16005KT 10/01 A2942 RMK A01 T01020009  RH  053%=      5-min Rain = 0
KCA1 110645Z 15004KT 10/01 A2942 RMK A01 T01020009  RH  053%=      5-min Rain = 0
KCA1 110646Z 15005KT 10/01 A2942 RMK A01 T01020009  RH  053%=      5-min Rain = 0
KCA1 110647Z 17004KT 10/01 A2942 RMK A01 T01020010  RH  053%=      5-min Rain = 0
KCA1 110648Z 16004KT 10/01 A2942 RMK A01 T01030010  RH  053%=      5-min Rain = 0
KCA1 110649Z 16005KT 10/01 A2942 RMK A01 T01030010  RH  052%=      5-min Rain = 0
KCA1 110650Z 15005KT 11/01 A2942 RMK A01 T01050011  RH  052%=      5-min Rain = 0
KCA1 110651Z 16004KT 11/01 A2942 RMK A01 T01050011  RH  052%=      5-min Rain = 0
KCA1 110652Z 16005KT 11/01 A2942 RMK A01 T01050011  RH  052%=      5-min Rain = 0
KCA1 110653Z 16005KT 10/01 A2942 RMK A01 T01040011  RH  052%=      5-min Rain = 0
KCA1 110654Z 16005KT 10/01 A2942 RMK A01 T01040011  RH  053%=      5-min Rain = 0
KCA1 110655Z 16005KT 10/01 A2942 RMK A01 T01040011  RH  053%=      5-min Rain = 0
KCA1 110656Z 15005KT 10/01 A2942 RMK A01 T01040011  RH  052%=      5-min Rain = 0
KCA1 110657Z 15005KT 11/01 A2942 RMK A01 T01050012  RH  053%=      5-min Rain = 0
KCA1 110658Z 15007KT 10/01 A2942 RMK A01 T01040012  RH  053%=      5-min Rain = 0
KCA1 110659Z 15005KT 10/01 A2942 RMK A01 T01040012  RH  053%=      5-min Rain = 0
KCA1 110700Z 15005KT 11/01 A2942 RMK A01 T01050013  RH  053%=      5-min Rain = 0
KCA1 110701Z 17006KT 11/01 A2942 RMK A01 T01060013  RH  053%=      5-min Rain = 0
KCA1 110702Z 17005KT 11/01 A2942 RMK A01 T01060013  RH  053%=      5-min Rain = 0
KCA1 110703Z 17006KT 11/01 A2942 RMK A01 T01060013  RH  052%=      5-min Rain = 0
KCA1 110704Z 17007KT 11/01 A2942 RMK A01 T01070013  RH  052%=      5-min Rain = 0
KCA1 110705Z 16006KT 11/01 A2942 RMK A01 T01070013  RH  052%=      5-min Rain = 0
KCA1 110706Z 16005KT 11/01 A2942 RMK A01 T01070013  RH  052%=      5-min Rain = 0
KCA1 110707Z 16006KT 11/01 A2942 RMK A01 T01060013  RH  053%=      5-min Rain = 0
KCA1 110708Z 16007KT 11/01 A2942 RMK A01 T01050013  RH  053%=      5-min Rain = 0
KCA1 110709Z 16006KT 11/01 A2942 RMK A01 T01050013  RH  053%=      5-min Rain = 0
KCA1 110710Z 16006KT 10/01 A2942 RMK A01 T01040013  RH  053%=      5-min Rain = 0
KCA1 110711Z 17006KT 10/01 A2942 RMK A01 T01030013  RH  053%=      5-min Rain = 0
KCA1 110712Z 17007KT 10/01 A2943 RMK A01 T01030013  RH  054%=      5-min Rain = 0
KCA1 110713Z 17006KT 10/01 A2943 RMK A01 T01030013  RH  054%=      5-min Rain = 0
KCA1 110714Z 18006KT 10/01 A2943 RMK A01 T01030013  RH  054%=      5-min Rain = 0
KCA1 110715Z 18005KT 10/01 A2943 RMK A01 T01030013  RH  054%=      5-min Rain = 0
KCA1 110716Z 19004KT 10/01 A2943 RMK A01 T01030013  RH  054%=      5-min Rain = 0
KCA1 110717Z 19004KT 10/01 A2943 RMK A01 T01020012  RH  054%=      5-min Rain = 0
KCA1 110718Z 19004KT 10/01 A2943 RMK A01 T01010012  RH  054%=      5-min Rain = 0
KCA1 110719Z 18004KT 10/01 A2943 RMK A01 T01000012  RH  054%=      5-min Rain = 0
KCA1 110720Z 18004KT 10/01 A2944 RMK A01 T01000012  RH  054%=      5-min Rain = 0
KCA1 110721Z 20004KT 10/01 A2944 RMK A01 T00990012  RH  055%=      5-min Rain = 0
KCA1 110722Z 20005KT 10/01 A2944 RMK A01 T00990012  RH  055%=      5-min Rain = 0
KCA1 110723Z 22003KT 10/01 A2944 RMK A01 T00970011  RH  055%=      5-min Rain = 0
KCA1 110724Z 21003KT 10/01 A2944 RMK A01 T00960011  RH  055%=      5-min Rain = 0
KCA1 110725Z 21003KT 10/01 A2944 RMK A01 T00950010  RH  055%=      5-min Rain = 0
KCA1 110726Z 22002KT 10/01 A2944 RMK A01 T00950011  RH  056%=      5-min Rain = 0
KCA1 110727Z 21003KT 09/01 A2944 RMK A01 T00940011  RH  056%=      5-min Rain = 0
KCA1 110728Z 21002KT 09/01 A2944 RMK A01 T00940011  RH  056%=      5-min Rain = 0
KCA1 110729Z 20001KT 10/01 A2944 RMK A01 T00950012  RH  056%=      5-min Rain = 0
KCA1 110730Z 21001KT 09/01 A2944 RMK A01 T00940011  RH  056%=      5-min Rain = 0
KCA1 110731Z 23002KT 09/01 A2945 RMK A01 T00940011  RH  056%=      5-min Rain = 0
KCA1 110732Z 27002KT 09/01 A2945 RMK A01 T00940012  RH  056%=      5-min Rain = 0
KCA1 110733Z 27002KT 09/01 A2945 RMK A01 T00940012  RH  057%=      5-min Rain = 0
KCA1 110734Z 27002KT 09/01 A2945 RMK A01 T00930011  RH  057%=      5-min Rain = 0
KCA1 110735Z 31002KT 09/01 A2945 RMK A01 T00930011  RH  057%=      5-min Rain = 0
KCA1 110736Z 31001KT 09/01 A2945 RMK A01 T00930011  RH  057%=      5-min Rain = 0
KCA1 110737Z 26002KT 09/01 A2945 RMK A01 T00930011  RH  056%=      5-min Rain = 0
KCA1 110738Z 29001KT 09/01 A2946 RMK A01 T00930011  RH  057%=      5-min Rain = 0
KCA1 110739Z 30003KT 09/01 A2946 RMK A01 T00930011  RH  056%=      5-min Rain = 0
KCA1 110740Z 32004KT 09/01 A2946 RMK A01 T00920010  RH  057%=      5-min Rain = 0
KCA1 110741Z 32004KT 09/01 A2946 RMK A01 T00910009  RH  057%=      5-min Rain = 0
KCA1 110742Z 31004KT 09/01 A2946 RMK A01 T00880008  RH  057%=      5-min Rain = 0
KCA1 110743Z 31004KT 09/01 A2946 RMK A01 T00860008  RH  058%=      5-min Rain = 0
KCA1 110744Z 31003KT 09/01 A2946 RMK A01 T00850008  RH  058%=      5-min Rain = 0
KCA1 110745Z 31002KT 09/01 A2946 RMK A01 T00850008  RH  059%=      5-min Rain = 0
KCA1 110746Z 29002KT 09/01 A2946 RMK A01 T00850009  RH  059%=      5-min Rain = 0
KCA1 110747Z 29002KT 09/01 A2946 RMK A01 T00850009  RH  059%=      5-min Rain = 0
KCA1 110748Z 28002KT 09/01 A2946 RMK A01 T00860010  RH  059%=      5-min Rain = 0
KCA1 110749Z 27002KT 09/01 A2946 RMK A01 T00880011  RH  059%=      5-min Rain = 0
KCA1 110750Z 27004KT 09/01 A2946 RMK A01 T00890012  RH  058%=      5-min Rain = 0
KCA1 110751Z 24003KT 09/01 A2946 RMK A01 T00910012  RH  058%=      5-min Rain = 0
KCA1 110752Z 24002KT 09/01 A2946 RMK A01 T00920012  RH  057%=      5-min Rain = 0
KCA1 110753Z 23003KT 09/01 A2946 RMK A01 T00930012  RH  057%=      5-min Rain = 0
KCA1 110754Z 24003KT 10/01 A2946 RMK A01 T00950013  RH  056%=      5-min Rain = 0
KCA1 110755Z 25002KT 10/01 A2946 RMK A01 T00960012  RH  056%=      5-min Rain = 0
KCA1 110756Z 26004KT 10/01 A2946 RMK A01 T00960012  RH  056%=      5-min Rain = 0
KCA1 110757Z 27003KT 10/01 A2946 RMK A01 T00960012  RH  056%=      5-min Rain = 0
KCA1 110758Z 27004KT 10/01 A2947 RMK A01 T00960012  RH  056%=      5-min Rain = 0
KCA1 110759Z 28004KT 10/01 A2947 RMK A01 T00950011  RH  056%=      5-min Rain = 0
KCA1 110800Z 28004KT 09/01 A2947 RMK A01 T00940011  RH  056%=      5-min Rain = 0
KCA1 110801Z 29005KT 09/01 A2947 RMK A01 T00940011  RH  056%=      5-min Rain = 0
KCA1 110802Z 28006KT 09/01 A2947 RMK A01 T00930011  RH  056%=      5-min Rain = 0
KCA1 110803Z 29006KT 09/01 A2947 RMK A01 T00920010  RH  057%=      5-min Rain = 0
KCA1 110804Z 29006KT 09/01 A2947 RMK A01 T00890009  RH  057%=      5-min Rain = 0
KCA1 110805Z 29006KT 09/01 A2948 RMK A01 T00880009  RH  058%=      5-min Rain = 0
KCA1 110806Z 30006KT 09/01 A2948 RMK A01 T00860009  RH  058%=      5-min Rain = 0
KCA1 110807Z 31006KT 08/01 A2948 RMK A01 T00840007  RH  059%=      5-min Rain = 0
KCA1 110808Z 31007KT 08/01 A2948 RMK A01 T00810006  RH  059%=      5-min Rain = 0
KCA1 110809Z 30007KT 08/01 A2948 RMK A01 T00780005  RH  060%=      5-min Rain = 0
KCA1 110810Z 31007KT 08/00 A2948 RMK A01 T00760004  RH  060%=      5-min Rain = 0
KCA1 110811Z 31007KT 07/00 A2948 RMK A01 T00740004  RH  061%=      5-min Rain = 0
KCA1 110812Z 31008KT 07/00 A2949 RMK A01 T00720003  RH  061%=      5-min Rain = 0
KCA1 110813Z 31009KT 07/00 A2949 RMK A01 T00700002  RH  062%=      5-min Rain = 0
KCA1 110814Z 31009KT 07/00 A2949 RMK A01 T00680002  RH  063%=      5-min Rain = 0
KCA1 110815Z 31009KT 07/00 A2949 RMK A01 T00670002  RH  063%=      5-min Rain = 0
KCA1 110816Z 31010KT 07/00 A2949 RMK A01 T00650002  RH  064%=      5-min Rain = 0
KCA1 110817Z 31010KT 06/00 A2949 RMK A01 T00640001  RH  064%=      5-min Rain = 0
KCA1 110818Z 32011KT 06/00 A295 RMK A01 T00630001  RH  065%=      5-min Rain = 0
KCA1 110819Z 32016KT 06/00 A295 RMK A01 T00620001  RH  065%=      5-min Rain = 0
KCA1 110820Z 32020KT 06/00 A295 RMK A01 T00640001  RH  064%=      5-min Rain = 0
KCA1 110821Z 33022G28KT 07/00 A295 RMK A01 T00680000  RH  062%=      5-min Rain = 0
KCA1 110822Z 34022G27KT 07/M00 A295 RMK A01 T00701001  RH  060%=      5-min Rain = 0
KCA1 110823Z 34026G31KT 07/M00 A295 RMK A01 T00721002  RH  060%=      5-min Rain = 0
KCA1 110824Z 33022G28KT 07/M00 A2951 RMK A01 T00721002  RH  059%=      5-min Rain = 0
KCA1 110825Z 33026G31KT 07/M00 A2951 RMK A01 T00721001  RH  060%=      5-min Rain = 0
KCA1 110826Z 33022KT 07/M00 A2951 RMK A01 T00701001  RH  061%=      5-min Rain = 0
KCA1 110827Z 34025G30KT 07/00 A2951 RMK A01 T006800-0  RH  062%=      5-min Rain = 0
KCA1 110828Z 34028G34KT 07/00 A2951 RMK A01 T00680001  RH  062%=      5-min Rain = 0
KCA1 110829Z 34025G32KT 07/00 A2951 RMK A01 T00670001  RH  063%=      5-min Rain = 0
KCA1 110830Z 34025G31KT 07/00 A2951 RMK A01 T00660002  RH  063%=      5-min Rain = 0
KCA1 110831Z 34027G32KT 07/00 A2951 RMK A01 T00660002  RH  064%=      5-min Rain = 0
KCA1 110832Z 34026G33KT 07/00 A2951 RMK A01 T00650002  RH  064%=      5-min Rain = 0
KCA1 110833Z 34027G36KT 07/00 A2951 RMK A01 T00650002  RH  064%=      5-min Rain = 0
KCA1 110834Z 34030G36KT 06/00 A2951 RMK A01 T00640002  RH  065%=      5-min Rain = 0
KCA1 110835Z 34028G36KT 06/00 A2951 RMK A01 T00640003  RH  065%=      5-min Rain = 0
KCA1 110836Z 34027G32KT 06/00 A2952 RMK A01 T00630003  RH  065%=      5-min Rain = 0
KCA1 110837Z 35032G42KT 06/00 A2952 RMK A01 T00630003  RH  066%=      5-min Rain = 0
KCA1 110838Z 34027G32KT 06/00 A2952 RMK A01 T00620003  RH  066%=      5-min Rain = 0
KCA1 110839Z 35025KT 06/00 A2952 RMK A01 T00620003  RH  066%=      5-min Rain = 0
KCA1 110840Z 34026G31KT 06/00 A2952 RMK A01 T00610003  RH  067%=      5-min Rain = 0
KCA1 110841Z 35021G30KT 06/00 A2952 RMK A01 T00600004  RH  067%=      5-min Rain = 0
KCA1 110842Z 35020G26KT 06/00 A2953 RMK A01 T00590003  RH  067%=      5-min Rain = 0
KCA1 110843Z 34026G35KT 06/00 A2952 RMK A01 T00580003  RH  068%=      5-min Rain = 0
KCA1 110844Z 34030G36KT 06/00 A2952 RMK A01 T00580004  RH  068%=      5-min Rain = 0
KCA1 110845Z 34025G32KT 06/00 A2953 RMK A01 T00570004  RH  069%=      5-min Rain = 0
KCA1 110846Z 34024G30KT 06/00 A2953 RMK A01 T00570004  RH  069%=      5-min Rain = 0
KCA1 110847Z 34025G34KT 06/00 A2953 RMK A01 T00560003  RH  069%=      5-min Rain = 0
KCA1 110848Z 34026G34KT 06/00 A2953 RMK A01 T00550003  RH  069%=      5-min Rain = 0
KCA1 110849Z 34024KT 05/00 A2953 RMK A01 T00540003  RH  070%=      5-min Rain = 0
KCA1 110850Z 34028G35KT 05/00 A2954 RMK A01 T00530003  RH  070%=      5-min Rain = 0
KCA1 110851Z 34035G44KT 05/00 A2954 RMK A01 T00510001  RH  070%=      5-min Rain = 0
KCA1 110852Z 33034G42KT 05/00 A2954 RMK A01 T00500000  RH  070%=      5-min Rain = 0
KCA1 110853Z 34035G46KT 05/00 A2954 RMK A01 T004800-0  RH  071%=      5-min Rain = 0
KCA1 110854Z 34036G42KT 05/M00 A2954 RMK A01 T00471001  RH  071%=      5-min Rain = 0
KCA1 110855Z 34037G47KT 05/M00 A2954 RMK A01 T00461001  RH  072%=      5-min Rain = 0
KCA1 110856Z 34037G43KT 05/M00 A2954 RMK A01 T00461001  RH  072%=      5-min Rain = 0
KCA1 110857Z 34038G47KT 05/M00 A2954 RMK A01 T00461001  RH  072%=      5-min Rain = 0
KCA1 110858Z 34029G37KT 05/M00 A2954 RMK A01 T00451001  RH  072%=      5-min Rain = 0
KCA1 110859Z 34033G40KT 05/M00 A2954 RMK A01 T00451002  RH  072%=      5-min Rain = 0
KCA1 110900Z 34034G41KT 04/M00 A2954 RMK A01 T00441002  RH  072%=      5-min Rain = 0
KCA1 110901Z 34034G39KT 04/M00 A2955 RMK A01 T00441002  RH  072%=      5-min Rain = 0
KCA1 110902Z 34036G52KT 04/M00 A2955 RMK A01 T00431003  RH  072%=      5-min Rain = 0
KCA1 110903Z 34030G42KT 04/M00 A2955 RMK A01 T00431004  RH  072%=      5-min Rain = 0
KCA1 110904Z 34029G35KT 04/M00 A2955 RMK A01 T00421004  RH  072%=      5-min Rain = 0
KCA1 110905Z 34028G35KT 04/M00 A2955 RMK A01 T00411004  RH  072%=      5-min Rain = 0
KCA1 110906Z 34032G39KT 04/M01 A2955 RMK A01 T00411005  RH  072%=      5-min Rain = 0
KCA1 110907Z 34031G39KT 04/M01 A2955 RMK A01 T00401006  RH  072%=      5-min Rain = 0
KCA1 110908Z 34033G43KT 04/M01 A2955 RMK A01 T00401006  RH  072%=      5-min Rain = 0
KCA1 110909Z 34030G40KT 04/M01 A2955 RMK A01 T00391007  RH  072%=      5-min Rain = 0
KCA1 110910Z 34030G36KT 04/M01 A2956 RMK A01 T00381007  RH  072%=      5-min Rain = 0
KCA1 110911Z 34034G41KT 04/M01 A2956 RMK A01 T00381008  RH  072%=      5-min Rain = 0
KCA1 110912Z 34032G42KT 04/M01 A2956 RMK A01 T00381007  RH  072%=      5-min Rain = 0
KCA1 110913Z 34031G38KT 04/M01 A2956 RMK A01 T00381007  RH  072%=      5-min Rain = 0
KCA1 110914Z 34030G39KT 04/M01 A2956 RMK A01 T00371008  RH  072%=      5-min Rain = 0
KCA1 110915Z 34030G36KT 04/M01 A2957 RMK A01 T00371008  RH  072%=      5-min Rain = 0
KCA1 110916Z 34033G38KT 04/M01 A2957 RMK A01 T00371009  RH  072%=      5-min Rain = 0
KCA1 110917Z 34033G40KT 04/M01 A2957 RMK A01 T00371010  RH  072%=      5-min Rain = 0
KCA1 110918Z 33035G42KT 04/M01 A2957 RMK A01 T00351012  RH  071%=      5-min Rain = 0
KCA1 110919Z 33031G39KT 03/M01 A2958 RMK A01 T00341014  RH  071%=      5-min Rain = 0
KCA1 110920Z 33036G43KT 03/M02 A2957 RMK A01 T00321016  RH  071%=      5-min Rain = 0
KCA1 110921Z 33032G41KT 03/M02 A2957 RMK A01 T00301018  RH  071%=      5-min Rain = 0
KCA1 110922Z 33035G43KT 03/M02 A2957 RMK A01 T00291019  RH  071%=      5-min Rain = 0
KCA1 110923Z 34031G38KT 03/M02 A2958 RMK A01 T00281019  RH  071%=      5-min Rain = 0
KCA1 110924Z 34029G36KT 03/M02 A2958 RMK A01 T00281019  RH  071%=      5-min Rain = 0
KCA1 110925Z 34029G36KT 03/M02 A2959 RMK A01 T00281019  RH  071%=      5-min Rain = 0
KCA1 110926Z 34027G35KT 03/M02 A2959 RMK A01 T00271019  RH  072%=      5-min Rain = 0
KCA1 110927Z 34035G42KT 03/M02 A2959 RMK A01 T00261020  RH  072%=      5-min Rain = 0
KCA1 110928Z 34030G37KT 03/M02 A2959 RMK A01 T00261020  RH  072%=      5-min Rain = 0
KCA1 110929Z 34029G38KT 03/M02 A2959 RMK A01 T00261020  RH  072%=      5-min Rain = 0
KCA1 110930Z 34033G40KT 03/M02 A2959 RMK A01 T00251021  RH  072%=      5-min Rain = 0
KCA1 110931Z 34035G44KT 03/M02 A2959 RMK A01 T00251021  RH  072%=      5-min Rain = 0
KCA1 110932Z 34032G39KT 03/M02 A2959 RMK A01 T00251022  RH  071%=      5-min Rain = 0
KCA1 110933Z 35031G40KT 02/M02 A296 RMK A01 T00241022  RH  071%=      5-min Rain = 0
KCA1 110934Z 34029G36KT 03/M02 A296 RMK A01 T00251022  RH  071%=      5-min Rain = 0
KCA1 110935Z 34033G39KT 02/M02 A296 RMK A01 T00241023  RH  071%=      5-min Rain = 0
KCA1 110936Z 34030G38KT 02/M02 A296 RMK A01 T00241024  RH  071%=      5-min Rain = 0
KCA1 110937Z 35029KT 02/M02 A296 RMK A01 T00241024  RH  071%=      5-min Rain = 0
KCA1 110938Z 35033G41KT 02/M02 A2961 RMK A01 T00241024  RH  071%=      5-min Rain = 0
KCA1 110939Z 35038G46KT 02/M03 A296 RMK A01 T00231025  RH  070%=      5-min Rain = 0
KCA1 110940Z 34040G45KT 02/M03 A296 RMK A01 T00231026  RH  070%=      5-min Rain = 0
KCA1 110941Z 35036G41KT 02/M03 A2961 RMK A01 T00231026  RH  070%=      5-min Rain = 0
KCA1 110942Z 35038G44KT 02/M03 A2961 RMK A01 T00221027  RH  070%=      5-min Rain = 0
KCA1 110943Z 34035G41KT 02/M03 A2961 RMK A01 T00211029  RH  069%=      5-min Rain = 0
KCA1 110944Z 35032G44KT 02/M03 A2962 RMK A01 T00201031  RH  069%=      5-min Rain = 0
KCA1 110945Z 35041G51KT 02/M03 A2962 RMK A01 T00191033  RH  068%=      5-min Rain = 0
KCA1 110946Z 35035G52KT 02/M03 A2962 RMK A01 T00181034  RH  068%=      5-min Rain = 0
KCA1 110947Z 35034G39KT 02/M04 A2962 RMK A01 T00181035  RH  068%=      5-min Rain = 0
KCA1 110948Z 34038G44KT 02/M04 A2962 RMK A01 T00181035  RH  068%=      5-min Rain = 0
KCA1 110949Z 35036G42KT 02/M04 A2962 RMK A01 T00181035  RH  068%=      5-min Rain = 0
KCA1 110950Z 35037G44KT 02/M04 A2962 RMK A01 T00181036  RH  068%=      5-min Rain = 0
KCA1 110951Z 34038G47KT 02/M04 A2963 RMK A01 T00181036  RH  068%=      5-min Rain = 0
KCA1 110952Z 35034G40KT 02/M04 A2963 RMK A01 T00181036  RH  067%=      5-min Rain = 0
KCA1 110953Z 35033G40KT 02/M04 A2963 RMK A01 T00181036  RH  067%=      5-min Rain = 0
KCA1 110954Z 35033G42KT 02/M04 A2963 RMK A01 T00181037  RH  067%=      5-min Rain = 0
KCA1 110955Z 34028G38KT 02/M04 A2963 RMK A01 T00181037  RH  067%=      5-min Rain = 0
KCA1 110956Z 35033G40KT 02/M04 A2964 RMK A01 T00181037  RH  067%=      5-min Rain = 0
KCA1 110957Z 35028G34KT 02/M04 A2964 RMK A01 T00181037  RH  067%=      5-min Rain = 0
KCA1 110958Z 34028G34KT 02/M04 A2964 RMK A01 T00181038  RH  067%=      5-min Rain = 0
KCA1 110959Z 35029G35KT 02/M04 A2964 RMK A01 T00181038  RH  067%=      5-min Rain = 0
KCA1 111000Z 34026KT 02/M04 A2965 RMK A01 T00181038  RH  067%=      5-min Rain = 0
KCA1 111001Z 35026G35KT 02/M04 A2965 RMK A01 T00181038  RH  067%=      5-min Rain = 0
KCA1 111002Z 34028G37KT 02/M04 A2965 RMK A01 T00171038  RH  067%=      5-min Rain = 0
KCA1 111003Z 34031G41KT 02/M04 A2965 RMK A01 T00171039  RH  067%=      5-min Rain = 0
KCA1 111004Z 34039G44KT 02/M04 A2965 RMK A01 T00151041  RH  066%=      5-min Rain = 0
KCA1 111005Z 33037G47KT 01/M04 A2965 RMK A01 T00131044  RH  066%=      5-min Rain = 0
KCA1 111006Z 34032G40KT 01/M05 A2965 RMK A01 T00111045  RH  066%=      5-min Rain = 0
KCA1 111007Z 34032G41KT 01/M04 A2965 RMK A01 T00101044  RH  067%=      5-min Rain = 0
KCA1 111008Z 34032G38KT 01/M05 A2966 RMK A01 T00101045  RH  067%=      5-min Rain = 0
KCA1 111009Z 34042G51KT 01/M05 A2965 RMK A01 T00091045  RH  067%=      5-min Rain = 0
KCA1 111010Z 34038G47KT 01/M05 A2966 RMK A01 T00091045  RH  067%=      5-min Rain = 0
KCA1 111011Z 34034G43KT 01/M05 A2966 RMK A01 T00081046  RH  067%=      5-min Rain = 0
KCA1 111012Z 34040G49KT 01/M05 A2966 RMK A01 T00071046  RH  067%=      5-min Rain = 0
KCA1 111013Z 34039G47KT 01/M05 A2966 RMK A01 T00061047  RH  068%=      5-min Rain = 0
KCA1 111014Z 34035G44KT 01/M05 A2967 RMK A01 T00061046  RH  068%=      5-min Rain = 0
KCA1 111015Z 34038G48KT 01/M05 A2966 RMK A01 T00061046  RH  068%=      5-min Rain = 0
KCA1 111016Z 35037KT 01/M05 A2967 RMK A01 T00051046  RH  068%=      5-min Rain = 0
KCA1 111017Z 34030G39KT 01/M05 A2967 RMK A01 T00061045  RH  069%=      5-min Rain = 0
KCA1 111018Z 34028G33KT 01/M05 A2967 RMK A01 T00061045  RH  069%=      5-min Rain = 0
KCA1 111019Z 34027G40KT 01/M05 A2968 RMK A01 T00051045  RH  069%=      5-min Rain = 0
KCA1 111020Z 34033G39KT 01/M05 A2968 RMK A01 T00051045  RH  069%=      5-min Rain = 0
KCA1 111021Z 34031G39KT 00/M05 A2968 RMK A01 T00041046  RH  069%=      5-min Rain = 0
KCA1 111022Z 34027G32KT 00/M05 A2968 RMK A01 T00031047  RH  069%=      5-min Rain = 0
KCA1 111023Z 34032G41KT 00/M05 A2968 RMK A01 T00021048  RH  069%=      5-min Rain = 0
KCA1 111024Z 34036G46KT 00/05 A2968 RMK A01 T00000-49  RH  069%=      5-min Rain = 0
KCA1 111025Z 34030G38KT M00/M05 A2968 RMK A01 T10011050  RH  069%=      5-min Rain = 0
KCA1 111026Z 35034G42KT M00/M05 A2968 RMK A01 T10021052  RH  069%=      5-min Rain = 0
KCA1 111027Z 34037G45KT M00/M05 A2969 RMK A01 T10031053  RH  069%=      5-min Rain = 0
KCA1 111028Z 34029G36KT M00/M05 A2969 RMK A01 T10041054  RH  069%=      5-min Rain = 0
KCA1 111029Z 34037G48KT M00/M05 A2969 RMK A01 T10041054  RH  069%=      5-min Rain = 0
KCA1 111030Z 35034G42KT M01/M06 A2969 RMK A01 T10051055  RH  069%=      5-min Rain = 0
KCA1 111031Z 34033G40KT M01/M06 A2969 RMK A01 T10061056  RH  069%=      5-min Rain = 0
KCA1 111032Z 34030G42KT M01/M06 A2969 RMK A01 T10061056  RH  069%=      5-min Rain = 0
KCA1 111033Z 34037G47KT M01/M06 A2969 RMK A01 T10071057  RH  069%=      5-min Rain = 0
KCA1 111034Z 35033G41KT M01/M06 A2969 RMK A01 T10071057  RH  069%=      5-min Rain = 0
KCA1 111035Z 35026G32KT M01/M06 A2969 RMK A01 T10081057  RH  069%=      5-min Rain = 0
KCA1 111036Z 35030G44KT M01/M06 A2969 RMK A01 T10081057  RH  070%=      5-min Rain = 0
KCA1 111037Z 34036G46KT M01/M06 A2969 RMK A01 T10081057  RH  070%=      5-min Rain = 0
KCA1 111038Z 35036G50KT M01/M06 A2969 RMK A01 T10081057  RH  070%=      5-min Rain = 0
KCA1 111039Z 34037G44KT M01/M06 A2969 RMK A01 T10081056  RH  070%=      5-min Rain = 0
KCA1 111040Z 34041G46KT M01/M06 A2969 RMK A01 T10091056  RH  070%=      5-min Rain = 0
KCA1 111041Z 35036G43KT M01/M06 A297 RMK A01 T10091056  RH  070%=      5-min Rain = 0
KCA1 111042Z 35032G39KT M01/M06 A2971 RMK A01 T10091056  RH  070%=      5-min Rain = 0
KCA1 111043Z 35033G40KT M01/M06 A297 RMK A01 T10081056  RH  070%=      5-min Rain = 0
KCA1 111044Z 35031G38KT M01/M06 A297 RMK A01 T10091056  RH  070%=      5-min Rain = 0
KCA1 111045Z 34032G37KT M01/M06 A297 RMK A01 T10081056  RH  070%=      5-min Rain = 0
KCA1 111046Z 35027G38KT M01/M06 A2971 RMK A01 T10091056  RH  070%=      5-min Rain = 0
KCA1 111047Z 34032G43KT M01/M06 A2971 RMK A01 T10091056  RH  070%=      5-min Rain = 0
KCA1 111048Z 34027G33KT M01/M06 A2971 RMK A01 T10091056  RH  071%=      5-min Rain = 0
KCA1 111049Z 34025G34KT M01/M06 A2971 RMK A01 T10091056  RH  071%=      5-min Rain = 0
KCA1 111050Z 35031G41KT M01/M06 A2971 RMK A01 T10091056  RH  071%=      5-min Rain = 0
KCA1 111051Z 34034G44KT M01/M06 A2971 RMK A01 T10111057  RH  071%=      5-min Rain = 0
KCA1 111052Z 34032G40KT M01/M06 A2971 RMK A01 T10131060  RH  071%=      5-min Rain = 0
KCA1 111053Z 34024G30KT M02/M06 A2971 RMK A01 T10151061  RH  071%=      5-min Rain = 0
KCA1 111054Z 35028G34KT M02/M06 A2971 RMK A01 T10161062  RH  071%=      5-min Rain = 0
KCA1 111055Z 34030G40KT M02/M06 A2971 RMK A01 T10171064  RH  070%=      5-min Rain = 0
KCA1 111056Z 35029G37KT M02/M07 A2971 RMK A01 T10191067  RH  069%=      5-min Rain = 0
KCA1 111057Z 35035G44KT M02/M07 A2971 RMK A01 T10201069  RH  069%=      5-min Rain = 0
KCA1 111058Z 35030G40KT M02/M07 A2971 RMK A01 T10211071  RH  069%=      5-min Rain = 0
KCA1 111059Z 35033G52KT M02/M07 A2971 RMK A01 T10231073  RH  069%=      5-min Rain = 0
KCA1 111100Z 34033G44KT M02/M07 A2971 RMK A01 T10241074  RH  068%=      5-min Rain = 0
KCA1 111101Z 35038G45KT M03/M08 A2971 RMK A01 T10251076  RH  068%=      5-min Rain = 0
KCA1 111102Z 35036G51KT M03/M08 A2971 RMK A01 T10251076  RH  068%=      5-min Rain = 0
KCA1 111103Z 35032G38KT M03/M08 A2971 RMK A01 T10251076  RH  068%=      5-min Rain = 0
KCA1 111104Z 35028G35KT M03/M08 A2971 RMK A01 T10251077  RH  068%=      5-min Rain = 0
KCA1 111105Z 35029G38KT M03/M08 A2972 RMK A01 T10251077  RH  068%=      5-min Rain = 0
KCA1 111106Z 35034G42KT M03/M08 A2971 RMK A01 T10251077  RH  068%=      5-min Rain = 0
KCA1 111107Z 35042G47KT M03/M08 A2971 RMK A01 T10261078  RH  067%=      5-min Rain = 0
KCA1 111108Z 35038G46KT M03/M08 A2971 RMK A01 T10261079  RH  067%=      5-min Rain = 0
KCA1 111109Z 36036G45KT M03/M08 A2971 RMK A01 T10261079  RH  067%=      5-min Rain = 0
KCA1 111110Z 34035G43KT M03/M08 A2972 RMK A01 T10261080  RH  067%=      5-min Rain = 0
KCA1 111111Z 34028G33KT M03/M08 A2972 RMK A01 T10261080  RH  067%=      5-min Rain = 0
KCA1 111112Z 35033G39KT M03/M08 A2972 RMK A01 T10261080  RH  067%=      5-min Rain = 0
KCA1 111113Z 35029G40KT M03/M08 A2972 RMK A01 T10261081  RH  066%=      5-min Rain = 0
KCA1 111114Z 35033G43KT M03/M08 A2972 RMK A01 T10261081  RH  066%=      5-min Rain = 0
KCA1 111115Z 35035G51KT M03/M08 A2972 RMK A01 T10261081  RH  066%=      5-min Rain = 0
KCA1 111116Z 36038G45KT M03/M08 A2972 RMK A01 T10271082  RH  066%=      5-min Rain = 0
KCA1 111117Z 35033G46KT M03/M08 A2972 RMK A01 T10271082  RH  066%=      5-min Rain = 0
KCA1 111118Z 35042G48KT M03/M08 A2972 RMK A01 T10271083  RH  066%=      5-min Rain = 0
KCA1 111119Z 35031G39KT M03/M08 A2973 RMK A01 T10271083  RH  066%=      5-min Rain = 0
KCA1 111120Z 36034G47KT M03/M08 A2973 RMK A01 T10271083  RH  066%=      5-min Rain = 0
KCA1 111121Z 35039G48KT M03/M08 A2973 RMK A01 T10271083  RH  065%=      5-min Rain = 0
KCA1 111122Z 35033G46KT M03/M08 A2973 RMK A01 T10271083  RH  065%=      5-min Rain = 0
KCA1 111123Z 35028G36KT M03/M08 A2973 RMK A01 T10271084  RH  065%=      5-min Rain = 0
KCA1 111124Z 35032G40KT M03/M08 A2973 RMK A01 T10271083  RH  065%=      5-min Rain = 0
KCA1 111125Z 35036G48KT M03/M08 A2973 RMK A01 T10271084  RH  065%=      5-min Rain = 0
KCA1 111126Z 34036G45KT M03/M08 A2972 RMK A01 T10271084  RH  065%=      5-min Rain = 0
KCA1 111127Z 34039G49KT M03/M08 A2972 RMK A01 T10271083  RH  065%=      5-min Rain = 0
KCA1 111128Z 35033G50KT M03/M08 A2972 RMK A01 T10271083  RH  065%=      5-min Rain = 0
KCA1 111129Z 35038G48KT M03/M08 A2972 RMK A01 T10271083  RH  065%=      5-min Rain = 0
KCA1 111130Z 35038G46KT M03/M08 A2972 RMK A01 T10271083  RH  065%=      5-min Rain = 0
KCA1 111131Z 35034G46KT M03/M08 A2972 RMK A01 T10271083  RH  065%=      5-min Rain = 0
KCA1 111132Z 35035G44KT M03/M08 A2972 RMK A01 T10261082  RH  065%=      5-min Rain = 0
KCA1 111133Z 35039G48KT M03/M08 A2972 RMK A01 T10271082  RH  066%=      5-min Rain = 0
KCA1 111134Z 35034G42KT M03/M08 A2972 RMK A01 T10271082  RH  066%=      5-min Rain = 0
KCA1 111135Z 36035G43KT M03/M08 A2973 RMK A01 T10271081  RH  066%=      5-min Rain = 0
KCA1 111136Z 34027G32KT M03/M08 A2973 RMK A01 T10271081  RH  066%=      5-min Rain = 0
KCA1 111137Z 35031G43KT M03/M08 A2974 RMK A01 T10261080  RH  067%=      5-min Rain = 0
KCA1 111138Z 35031G38KT M03/M08 A2974 RMK A01 T10261079  RH  067%=      5-min Rain = 0
KCA1 111139Z 35033G42KT M03/M08 A2974 RMK A01 T10261079  RH  067%=      5-min Rain = 0
KCA1 111140Z 35033G40KT M03/M08 A2974 RMK A01 T10261078  RH  068%=      5-min Rain = 0
KCA1 111141Z 34033G40KT M03/M08 A2974 RMK A01 T10261078  RH  068%=      5-min Rain = 0
KCA1 111142Z 34031KT M03/M08 A2974 RMK A01 T10261077  RH  068%=      5-min Rain = 0
KCA1 111143Z 34028G33KT M03/M08 A2975 RMK A01 T10271077  RH  069%=      5-min Rain = 0
KCA1 111144Z 34030G39KT M03/M08 A2975 RMK A01 T10271076  RH  069%=      5-min Rain = 0
KCA1 111145Z 35031G36KT M03/M08 A2975 RMK A01 T10271075  RH  069%=      5-min Rain = 0
KCA1 111146Z 35026G32KT M03/M08 A2975 RMK A01 T10271075  RH  070%=      5-min Rain = 0
KCA1 111147Z 34022G30KT M03/M07 A2976 RMK A01 T10271074  RH  070%=      5-min Rain = 0
KCA1 111148Z 34026G31KT M03/M07 A2976 RMK A01 T10271073  RH  071%=      5-min Rain = 0
KCA1 111149Z 34021G27KT M03/M07 A2976 RMK A01 T10281072  RH  072%=      5-min Rain = 0
KCA1 111150Z 34023G30KT M03/M07 A2976 RMK A01 T10281070  RH  073%=      5-min Rain = 0
KCA1 111151Z 34025G33KT M03/M07 A2976 RMK A01 T10291067  RH  075%=      5-min Rain = 0
KCA1 111152Z 34027G35KT M03/M07 A2976 RMK A01 T10311065  RH  077%=      5-min Rain = 0
KCA1 111153Z 34029G37KT M03/M06 A2975 RMK A01 T10321063  RH  079%=      5-min Rain = 0
KCA1 111154Z 33024G32KT M03/M06 A2975 RMK A01 T10331061  RH  081%=      5-min Rain = 0
KCA1 111155Z 34024G32KT M03/M06 A2975 RMK A01 T10341059  RH  083%=      5-min Rain = 0
KCA1 111156Z 34025G35KT M04/M06 A2975 RMK A01 T10351058  RH  084%=      5-min Rain = 0
KCA1 111157Z 34019G24KT M04/M06 A2976 RMK A01 T10361057  RH  085%=      5-min Rain = 0
KCA1 111158Z 34029G34KT M04/M06 A2975 RMK A01 T10351056  RH  085%=      5-min Rain = 0
KCA1 111159Z 34023G31KT M04/M06 A2976 RMK A01 T10351057  RH  085%=      5-min Rain = 0
KCA1 111200Z 33020G25KT M04/M06 A2976 RMK A01 T10351057  RH  085%=      5-min Rain = 0
KCA1 111201Z 33019G24KT M04/M06 A2976 RMK A01 T10361058  RH  085%=      5-min Rain = 0
KCA1 111202Z 34024G34KT M04/M06 A2976 RMK A01 T10351057  RH  085%=      5-min Rain = 0
KCA1 111203Z 34026G33KT M04/M06 A2976 RMK A01 T10351057  RH  085%=      5-min Rain = 0
KCA1 111204Z 34024KT M04/M06 A2976 RMK A01 T10351057  RH  085%=      5-min Rain = 0
KCA1 111205Z 34025G32KT M04/M06 A2976 RMK A01 T10351057  RH  085%=      5-min Rain = 0
KCA1 111206Z 34019G27KT M04/M06 A2976 RMK A01 T10351057  RH  085%=      5-min Rain = 0
KCA1 111207Z 34022G30KT M04/M06 A2977 RMK A01 T10351056  RH  086%=      5-min Rain = 0
KCA1 111208Z 34035G41KT M04/M06 A2976 RMK A01 T10361057  RH  085%=      5-min Rain = 0
KCA1 111209Z 34030G37KT M04/M06 A2977 RMK A01 T10371061  RH  084%=      5-min Rain = 0
KCA1 111210Z 34023G29KT M04/M06 A2977 RMK A01 T10391063  RH  083%=      5-min Rain = 0
KCA1 111211Z 34027G33KT M04/M07 A2977 RMK A01 T10401065  RH  083%=      5-min Rain = 0
KCA1 111212Z 34023G30KT M04/M07 A2978 RMK A01 T10411065  RH  083%=      5-min Rain = 0
KCA1 111213Z 34028G36KT M04/M07 A2978 RMK A01 T10411065  RH  084%=      5-min Rain = 0
KCA1 111214Z 34029G34KT M04/M07 A2978 RMK A01 T10421065  RH  084%=      5-min Rain = 0
KCA1 111215Z 34028G37KT M04/M07 A2978 RMK A01 T10421066  RH  084%=      5-min Rain = 0
KCA1 111216Z 33030KT M04/M07 A2978 RMK A01 T10431067  RH  083%=      5-min Rain = 0
KCA1 111217Z 34030G35KT M04/M07 A2978 RMK A01 T10431067  RH  083%=      5-min Rain = 0
KCA1 111218Z 34031G37KT M04/M07 A2979 RMK A01 T10441068  RH  083%=      5-min Rain = 0
KCA1 111219Z 34028KT M04/M07 A2979 RMK A01 T10441068  RH  083%=      5-min Rain = 0
KCA1 111220Z 34029G35KT M04/M07 A2979 RMK A01 T10441069  RH  083%=      5-min Rain = 0
KCA1 111221Z 34027G32KT M04/M07 A2979 RMK A01 T10441069  RH  083%=      5-min Rain = 0
KCA1 111222Z 34027G34KT M05/M07 A298 RMK A01 T10451070  RH  083%=      5-min Rain = 0
KCA1 111223Z 34029G36KT M05/M07 A298 RMK A01 T10451070  RH  083%=      5-min Rain = 0
KCA1 111224Z 34026G34KT M05/M07 A2981 RMK A01 T10451070  RH  083%=      5-min Rain = 0
KCA1 111225Z 34024G31KT M05/M07 A2981 RMK A01 T10451070  RH  083%=      5-min Rain = 0
KCA1 111226Z 35023G28KT M05/M07 A2982 RMK A01 T10451070  RH  083%=      5-min Rain = 0
KCA1 111227Z 34021G26KT M05/M07 A2982 RMK A01 T10451070  RH  083%=      5-min Rain = 0
KCA1 111228Z 34023KT M05/M07 A2982 RMK A01 T10451069  RH  083%=      5-min Rain = 0
KCA1 111229Z 33022G29KT M05/M07 A2982 RMK A01 T10451069  RH  083%=      5-min Rain = 0
KCA1 111230Z 34020G25KT M05/M07 A2983 RMK A01 T10451069  RH  083%=      5-min Rain = 0
KCA1 111231Z 33024G30KT M05/M07 A2983 RMK A01 T10461070  RH  083%=      5-min Rain = 0
KCA1 111232Z 34024G30KT M05/M07 A2983 RMK A01 T10451070  RH  083%=      5-min Rain = 0
KCA1 111233Z 33023KT M05/M07 A2983 RMK A01 T10461070  RH  083%=      5-min Rain = 0
KCA1 111234Z 34020KT M05/M07 A2984 RMK A01 T10461071  RH  083%=      5-min Rain = 0
KCA1 111235Z 34026KT M05/M07 A2984 RMK A01 T10461071  RH  083%=      5-min Rain = 0
KCA1 111236Z 34023KT M05/M07 A2984 RMK A01 T10461072  RH  082%=      5-min Rain = 0
KCA1 111237Z 34021G26KT M05/M07 A2984 RMK A01 T10461072  RH  082%=      5-min Rain = 0
KCA1 111238Z 34021G27KT M05/M07 A2984 RMK A01 T10471073  RH  082%=      5-min Rain = 0
KCA1 111239Z 34027G34KT M05/M07 A2984 RMK A01 T10471074  RH  082%=      5-min Rain = 0
KCA1 111240Z 34022G29KT M05/M07 A2984 RMK A01 T10471074  RH  081%=      5-min Rain = 0
KCA1 111241Z 34022G27KT M05/M07 A2984 RMK A01 T10471074  RH  081%=      5-min Rain = 0
KCA1 111242Z 34022G29KT M05/M07 A2984 RMK A01 T10471074  RH  081%=      5-min Rain = 0
KCA1 111243Z 34027G32KT M05/M07 A2984 RMK A01 T10471074  RH  081%=      5-min Rain = 0
KCA1 111244Z 34023G29KT M05/M08 A2984 RMK A01 T10471075  RH  081%=      5-min Rain = 0
KCA1 111245Z 34024G29KT M05/M08 A2984 RMK A01 T10471075  RH  081%=      5-min Rain = 0
KCA1 111246Z 34019G24KT M05/M08 A2985 RMK A01 T10471075  RH  081%=      5-min Rain = 0
KCA1 111247Z 33017G23KT M05/M07 A2985 RMK A01 T10471074  RH  081%=      5-min Rain = 0
KCA1 111248Z 34021G26KT M05/M07 A2985 RMK A01 T10471074  RH  082%=      5-min Rain = 0
KCA1 111249Z 34018G25KT M05/M07 A2985 RMK A01 T10471074  RH  082%=      5-min Rain = 0
KCA1 111250Z 34017G23KT M05/M07 A2986 RMK A01 T10471073  RH  082%=      5-min Rain = 0
KCA1 111251Z 33015KT M05/M07 A2986 RMK A01 T10471073  RH  082%=      5-min Rain = 0
KCA1 111252Z 33014KT M05/M07 A2986 RMK A01 T10471072  RH  083%=      5-min Rain = 0
KCA1 111253Z 34017KT M05/M07 A2986 RMK A01 T10471072  RH  083%=      5-min Rain = 0
KCA1 111254Z 32017KT M05/M07 A2986 RMK A01 T10471072  RH  083%=      5-min Rain = 0
KCA1 111255Z 32016KT M05/M07 A2987 RMK A01 T10471072  RH  083%=      5-min Rain = 0
KCA1 111256Z 33019G26KT M05/M07 A2987 RMK A01 T10481073  RH  082%=      5-min Rain = 0
KCA1 111257Z 33022KT M05/M07 A2987 RMK A01 T10481074  RH  082%=      5-min Rain = 0
KCA1 111258Z 34018G23KT M05/M08 A2987 RMK A01 T10481075  RH  081%=      5-min Rain = 0
KCA1 111259Z 33015KT M05/M08 A2987 RMK A01 T10481075  RH  081%=      5-min Rain = 0
KCA1 111300Z 33014KT M05/M08 A2987 RMK A01 T10481075  RH  081%=      5-min Rain = 0
KCA1 111301Z 33015G21KT M05/M08 A2987 RMK A01 T10481075  RH  082%=      5-min Rain = 0
KCA1 111302Z 32017G22KT M05/M08 A2987 RMK A01 T10491075  RH  082%=      5-min Rain = 0
KCA1 111303Z 33019G25KT M05/M08 A2987 RMK A01 T10481075  RH  081%=      5-min Rain = 0
KCA1 111304Z 33022G29KT M05/M08 A2987 RMK A01 T10491076  RH  081%=      5-min Rain = 0
KCA1 111305Z 34021G29KT M05/M08 A2987 RMK A01 T10481076  RH  081%=      5-min Rain = 0
KCA1 111306Z 34021G26KT M05/M08 A2987 RMK A01 T10491077  RH  081%=      5-min Rain = 0
KCA1 111307Z 34022G30KT M05/M08 A2987 RMK A01 T10491077  RH  081%=      5-min Rain = 0
KCA1 111308Z 34014G19KT M05/M08 A2987 RMK A01 T10491077  RH  081%=      5-min Rain = 0
KCA1 111309Z 33017G22KT M05/M08 A2987 RMK A01 T10491078  RH  081%=      5-min Rain = 0
KCA1 111310Z 33015G24KT M05/M08 A2987 RMK A01 T10501077  RH  081%=      5-min Rain = 0
KCA1 111311Z 34026G32KT M05/M08 A2987 RMK A01 T10501077  RH  081%=      5-min Rain = 0
KCA1 111312Z 35025G31KT M05/M08 A2987 RMK A01 T10501078  RH  081%=      5-min Rain = 0
KCA1 111313Z 34023G29KT M05/M08 A2987 RMK A01 T10501080  RH  080%=      5-min Rain = 0
KCA1 111314Z 35026G34KT M05/M08 A2987 RMK A01 T10511080  RH  080%=      5-min Rain = 0
KCA1 111315Z 34023G32KT M05/M08 A2987 RMK A01 T10501080  RH  079%=      5-min Rain = 0
KCA1 111316Z 34019G24KT M05/M08 A2988 RMK A01 T10511081  RH  079%=      5-min Rain = 0
KCA1 111317Z 34021KT M05/M08 A2988 RMK A01 T10511081  RH  080%=      5-min Rain = 0
KCA1 111318Z 34023G28KT M05/M08 A2988 RMK A01 T10511081  RH  080%=      5-min Rain = 0
KCA1 111319Z 34025G30KT M05/M08 A2988 RMK A01 T10511081  RH  080%=      5-min Rain = 0
KCA1 111320Z 33023KT M05/M08 A2988 RMK A01 T10511081  RH  080%=      5-min Rain = 0
KCA1 111321Z 33019KT M05/M08 A2988 RMK A01 T10511081  RH  080%=      5-min Rain = 0
KCA1 111322Z 34014G21KT M05/M08 A2989 RMK A01 T10511080  RH  080%=      5-min Rain = 0
KCA1 111323Z 33017G22KT M05/M08 A2989 RMK A01 T10511079  RH  081%=      5-min Rain = 0
KCA1 111324Z 33016KT M05/M08 A2989 RMK A01 T10511078  RH  081%=      5-min Rain = 0
KCA1 111325Z 32010KT M05/M08 A2989 RMK A01 T10511077  RH  082%=      5-min Rain = 0
KCA1 111326Z 32012KT M05/M08 A299 RMK A01 T10511076  RH  083%=      5-min Rain = 0
KCA1 111327Z 32013KT M05/M08 A299 RMK A01 T10511076  RH  083%=      5-min Rain = 0
KCA1 111328Z 33017KT M05/M08 A299 RMK A01 T10511076  RH  083%=      5-min Rain = 0
KCA1 111329Z 33018G23KT M05/M08 A299 RMK A01 T10511076  RH  083%=      5-min Rain = 0
KCA1 111330Z 33018G26KT M05/M08 A299 RMK A01 T10511077  RH  082%=      5-min Rain = 0
KCA1 111331Z 33023G31KT M05/M08 A299 RMK A01 T10511078  RH  081%=      5-min Rain = 0
KCA1 111332Z 33020KT M05/M08 A299 RMK A01 T10511080  RH  081%=      5-min Rain = 0
KCA1 111333Z 33019G26KT M05/M08 A299 RMK A01 T10511080  RH  080%=      5-min Rain = 0
KCA1 111334Z 33026KT M05/M08 A299 RMK A01 T10511080  RH  080%=      5-min Rain = 0
KCA1 111335Z 33022G27KT M05/M08 A299 RMK A01 T10511081  RH  080%=      5-min Rain = 0
KCA1 111336Z 33019G24KT M05/M08 A2991 RMK A01 T10521081  RH  080%=      5-min Rain = 0
KCA1 111337Z 33024G29KT M05/M08 A299 RMK A01 T10521081  RH  080%=      5-min Rain = 0
KCA1 111338Z 33021G26KT M05/M08 A2991 RMK A01 T10521082  RH  080%=      5-min Rain = 0
KCA1 111339Z 34025G32KT M05/M08 A299 RMK A01 T10521082  RH  080%=      5-min Rain = 0
KCA1 111340Z 33025G31KT M05/M08 A299 RMK A01 T10531083  RH  079%=      5-min Rain = 0
KCA1 111341Z 34020G25KT M05/M08 A2991 RMK A01 T10531084  RH  079%=      5-min Rain = 0
KCA1 111342Z 34025KT M05/M08 A2991 RMK A01 T10531084  RH  079%=      5-min Rain = 0
KCA1 111343Z 34022G28KT M05/M08 A2991 RMK A01 T10531084  RH  079%=      5-min Rain = 0
KCA1 111344Z 33019G24KT M05/M08 A2991 RMK A01 T10531084  RH  079%=      5-min Rain = 0
KCA1 111345Z 33020G27KT M05/M08 A2991 RMK A01 T10531084  RH  079%=      5-min Rain = 0
KCA1 111346Z 33020G26KT M05/M08 A2991 RMK A01 T10531084  RH  079%=      5-min Rain = 0
KCA1 111347Z 34024G29KT M05/M09 A2992 RMK A01 T10541085  RH  078%=      5-min Rain = 0
KCA1 111348Z 34020G26KT M05/M09 A2992 RMK A01 T10541087  RH  078%=      5-min Rain = 0
KCA1 111349Z 34022G27KT M05/M09 A2992 RMK A01 T10541088  RH  077%=      5-min Rain = 0
KCA1 111350Z 34019G24KT M05/M09 A2992 RMK A01 T10541088  RH  077%=      5-min Rain = 0
KCA1 111351Z 34025KT M05/M09 A2992 RMK A01 T10541089  RH  076%=      5-min Rain = 0
KCA1 111352Z 33025G35KT M05/M09 A2992 RMK A01 T10541090  RH  076%=      5-min Rain = 0
KCA1 111353Z 33024G30KT M05/M09 A2992 RMK A01 T10541091  RH  075%=      5-min Rain = 0
KCA1 111354Z 34023G28KT M05/M09 A2992 RMK A01 T10541092  RH  074%=      5-min Rain = 0
KCA1 111355Z 34022G27KT M05/M09 A2993 RMK A01 T10531092  RH  074%=      5-min Rain = 0
KCA1 111356Z 34023G31KT M05/M09 A2992 RMK A01 T10531092  RH  074%=      5-min Rain = 0
KCA1 111357Z 34025KT M05/M09 A2993 RMK A01 T10531094  RH  073%=      5-min Rain = 0
KCA1 111358Z 34023KT M05/M09 A2993 RMK A01 T10531094  RH  073%=      5-min Rain = 0
KCA1 111359Z 34021G26KT M05/M09 A2993 RMK A01 T10531094  RH  073%=      5-min Rain = 0
KCA1 111400Z 34024KT M05/M09 A2993 RMK A01 T10531094  RH  073%=      5-min Rain = 0
KCA1 111401Z 34019KT M05/M09 A2993 RMK A01 T10521094  RH  072%=      5-min Rain = 0
KCA1 111402Z 34020G26KT M05/M10 A2994 RMK A01 T10521095  RH  072%=      5-min Rain = 0
KCA1 111403Z 34023G31KT M05/M09 A2993 RMK A01 T10521094  RH  072%=      5-min Rain = 0
KCA1 111404Z 34024G31KT M05/M10 A2994 RMK A01 T10521096  RH  071%=      5-min Rain = 0
KCA1 111405Z 33021G27KT M05/M10 A2994 RMK A01 T10511096  RH  071%=      5-min Rain = 0
KCA1 111406Z 34022G27KT M05/M10 A2994 RMK A01 T10511096  RH  071%=      5-min Rain = 0
KCA1 111407Z 34022G29KT M05/M10 A2994 RMK A01 T10511096  RH  071%=      5-min Rain = 0
KCA1 111408Z 33019G26KT M05/M10 A2994 RMK A01 T10511097  RH  071%=      5-min Rain = 0
KCA1 111409Z 34023KT M05/M10 A2994 RMK A01 T10521097  RH  071%=      5-min Rain = 0
KCA1 111410Z 34022KT M05/M10 A2994 RMK A01 T10511097  RH  071%=      5-min Rain = 0
KCA1 111411Z 34023KT M05/M10 A2994 RMK A01 T10511097  RH  070%=      5-min Rain = 0
KCA1 111412Z 34025KT M05/M10 A2994 RMK A01 T10511097  RH  070%=      5-min Rain = 0
KCA1 111413Z 34025KT M05/M10 A2994 RMK A01 T10521098  RH  070%=      5-min Rain = 0
KCA1 111414Z 35023KT M05/M10 A2994 RMK A01 T10521099  RH  069%=      5-min Rain = 0
KCA1 111415Z 34021KT M05/M10 A2994 RMK A01 T10521099  RH  069%=      5-min Rain = 0
KCA1 111416Z 34023G29KT M05/M10 A2994 RMK A01 T10521099  RH  069%=      5-min Rain = 0
KCA1 111417Z 34020G29KT M05/M10 A2994 RMK A01 T10521100  RH  069%=      5-min Rain = 0
KCA1 111418Z 35021G26KT M05/M10 A2994 RMK A01 T10521100  RH  069%=      5-min Rain = 0
KCA1 111419Z 34021G27KT M05/M10 A2994 RMK A01 T10521100  RH  069%=      5-min Rain = 0
KCA1 111420Z 33022G29KT M05/M10 A2994 RMK A01 T10521101  RH  069%=      5-min Rain = 0
KCA1 111421Z 34026KT M05/M10 A2995 RMK A01 T10521101  RH  068%=      5-min Rain = 0
KCA1 111422Z 34024KT M05/M10 A2995 RMK A01 T10521102  RH  068%=      5-min Rain = 0
KCA1 111423Z 34028G33KT M05/M10 A2995 RMK A01 T10521102  RH  068%=      5-min Rain = 0
KCA1 111424Z 34024G30KT M05/M10 A2995 RMK A01 T10521103  RH  067%=      5-min Rain = 0
KCA1 111425Z 33023G29KT M05/M10 A2994 RMK A01 T10521103  RH  067%=      5-min Rain = 0
KCA1 111426Z 34023G28KT M05/M10 A2994 RMK A01 T10521104  RH  067%=      5-min Rain = 0
KCA1 111427Z 35023KT M05/M10 A2994 RMK A01 T10521104  RH  067%=      5-min Rain = 0
KCA1 111428Z 34026G32KT M05/M11 A2994 RMK A01 T10521105  RH  067%=      5-min Rain = 0
KCA1 111429Z 34028G34KT M05/M11 A2994 RMK A01 T10521105  RH  066%=      5-min Rain = 0
KCA1 111430Z 34029G34KT M05/M11 A2994 RMK A01 T10521106  RH  066%=      5-min Rain = 0
KCA1 111431Z 35029G37KT M05/M11 A2994 RMK A01 T10531107  RH  066%=      5-min Rain = 0
KCA1 111432Z 35027G35KT M05/M11 A2994 RMK A01 T10531108  RH  065%=      5-min Rain = 0
KCA1 111433Z 34022G27KT M05/M11 A2995 RMK A01 T10531108  RH  065%=      5-min Rain = 0
KCA1 111434Z 35025G30KT M05/M11 A2995 RMK A01 T10531107  RH  065%=      5-min Rain = 0
KCA1 111435Z 35025G31KT M05/M11 A2995 RMK A01 T10531107  RH  065%=      5-min Rain = 0
KCA1 111436Z 35027G32KT M05/M11 A2995 RMK A01 T10531108  RH  065%=      5-min Rain = 0
KCA1 111437Z 35027KT M05/M11 A2995 RMK A01 T10521108  RH  065%=      5-min Rain = 0
KCA1 111438Z 35023G28KT M05/M11 A2995 RMK A01 T10521108  RH  065%=      5-min Rain = 0
KCA1 111439Z 35022G29KT M05/M11 A2996 RMK A01 T10511108  RH  065%=      5-min Rain = 0
KCA1 111440Z 35023G28KT M05/M11 A2996 RMK A01 T10511107  RH  065%=      5-min Rain = 0
KCA1 111441Z 34022KT M05/M11 A2996 RMK A01 T10501107  RH  064%=      5-min Rain = 0
KCA1 111442Z 35018KT M05/M11 A2996 RMK A01 T10491107  RH  064%=      5-min Rain = 0
KCA1 111443Z 34016KT M05/M11 A2997 RMK A01 T10491107  RH  064%=      5-min Rain = 0
KCA1 111444Z 34017G25KT M05/M11 A2997 RMK A01 T10481106  RH  064%=      5-min Rain = 0
KCA1 111445Z 33020G26KT M05/M11 A2997 RMK A01 T10481105  RH  064%=      5-min Rain = 0
KCA1 111446Z 34017G23KT M05/M11 A2997 RMK A01 T10481105  RH  064%=      5-min Rain = 0
KCA1 111447Z 34023KT M05/M10 A2997 RMK A01 T10481104  RH  065%=      5-min Rain = 0
KCA1 111448Z 33022G27KT M05/M10 A2997 RMK A01 T10481104  RH  065%=      5-min Rain = 0
KCA1 111449Z 33023G28KT M05/M10 A2997 RMK A01 T10481104  RH  065%=      5-min Rain = 0
KCA1 111450Z 33024KT M05/M10 A2998 RMK A01 T10471104  RH  064%=      5-min Rain = 0
KCA1 111451Z 33022G28KT M05/M10 A2998 RMK A01 T10471104  RH  064%=      5-min Rain = 0
KCA1 111452Z 33022G30KT M05/M10 A2998 RMK A01 T10471104  RH  065%=      5-min Rain = 0
KCA1 111453Z 33024KT M05/M10 A2998 RMK A01 T10471104  RH  065%=      5-min Rain = 0
KCA1 111454Z 33024G30KT M05/M11 A2998 RMK A01 T10481105  RH  065%=      5-min Rain = 0
KCA1 111455Z 33027KT M05/M11 A2998 RMK A01 T10491106  RH  065%=      5-min Rain = 0
KCA1 111456Z 33026G32KT M05/M11 A2998 RMK A01 T10501106  RH  065%=      5-min Rain = 0
KCA1 111457Z 33028KT M05/M11 A2998 RMK A01 T10501106  RH  065%=      5-min Rain = 0
KCA1 111458Z 33025G30KT M05/M11 A2998 RMK A01 T10511107  RH  065%=      5-min Rain = 0
KCA1 111459Z 34026G31KT M05/M11 A2998 RMK A01 T10511107  RH  065%=      5-min Rain = 0
KCA1 111500Z 34025KT M05/M11 A2999 RMK A01 T10511107  RH  065%=      5-min Rain = 0
KCA1 111501Z 34020G25KT M05/M11 A2999 RMK A01 T10511107  RH  065%=      5-min Rain = 0
KCA1 111502Z 34021G31KT M05/M11 A2999 RMK A01 T10511107  RH  065%=      5-min Rain = 0
KCA1 111503Z 33026KT M05/M11 A2999 RMK A01 T10511107  RH  065%=      5-min Rain = 0
KCA1 111504Z 34023G30KT M05/M11 A2999 RMK A01 T10501107  RH  064%=      5-min Rain = 0
KCA1 111505Z 34022KT M05/M11 A2999 RMK A01 T10491106  RH  064%=      5-min Rain = 0
KCA1 111506Z 33023G29KT M05/M11 A30 RMK A01 T10481106  RH  064%=      5-min Rain = 0
KCA1 111507Z 34025G32KT M05/M11 A2999 RMK A01 T10481107  RH  063%=      5-min Rain = 0
KCA1 111508Z 35028G33KT M05/M11 A30 RMK A01 T10461108  RH  062%=      5-min Rain = 0
KCA1 111509Z 34025G33KT M05/M11 A30 RMK A01 T10451108  RH  062%=      5-min Rain = 0
KCA1 111510Z 34023G29KT M04/M11 A30 RMK A01 T10441107  RH  061%=      5-min Rain = 0
KCA1 111511Z 35023G32KT M04/M11 A30 RMK A01 T10421106  RH  061%=      5-min Rain = 0
KCA1 111512Z 34022G29KT M04/M11 A30 RMK A01 T10411107  RH  060%=      5-min Rain = 0
KCA1 111513Z 34027G36KT M04/M11 A30 RMK A01 T10391106  RH  060%=      5-min Rain = 0
KCA1 111514Z 34029KT M04/M11 A30 RMK A01 T10391108  RH  059%=      5-min Rain = 0
KCA1 111515Z 34028G34KT M04/M11 A2999 RMK A01 T10401109  RH  058%=      5-min Rain = 0
KCA1 111516Z 35024G29KT M04/M11 A30 RMK A01 T10391109  RH  058%=      5-min Rain = 0
KCA1 111517Z 35026KT M04/M11 A2999 RMK A01 T10381108  RH  058%=      5-min Rain = 0
KCA1 111518Z 34024G29KT M04/M11 A30 RMK A01 T10381108  RH  058%=      5-min Rain = 0
KCA1 111519Z 34024G32KT M04/M11 A30 RMK A01 T10371106  RH  059%=      5-min Rain = 0
KCA1 111520Z 34029G34KT M04/M11 A30 RMK A01 T10361106  RH  058%=      5-min Rain = 0
KCA1 111521Z 35026G33KT M04/M11 A30 RMK A01 T10361108  RH  058%=      5-min Rain = 0
KCA1 111522Z 34023KT M04/M11 A30 RMK A01 T10371108  RH  058%=      5-min Rain = 0
KCA1 111523Z 34024KT M04/M11 A30 RMK A01 T10361106  RH  059%=      5-min Rain = 0
KCA1 111524Z 35029G36KT M04/M11 A30 RMK A01 T10351105  RH  058%=      5-min Rain = 0
KCA1 111525Z 34025G30KT M04/M11 A30 RMK A01 T10361108  RH  057%=      5-min Rain = 0
KCA1 111526Z 34025G31KT M04/M11 A3001 RMK A01 T10371108  RH  058%=      5-min Rain = 0
KCA1 111527Z 34026G34KT M04/M11 A30 RMK A01 T10361108  RH  058%=      5-min Rain = 0
KCA1 111528Z 35020G26KT M04/M11 A3001 RMK A01 T10361107  RH  058%=      5-min Rain = 0
KCA1 111529Z 35021G30KT M03/M10 A3001 RMK A01 T10341104  RH  058%=      5-min Rain = 0
KCA1 111530Z 35023G29KT M03/M10 A3001 RMK A01 T10331104  RH  058%=      5-min Rain = 0
KCA1 111531Z 34023G29KT M03/M11 A3001 RMK A01 T10331105  RH  058%=      5-min Rain = 0
KCA1 111532Z 34020KT M03/M10 A3001 RMK A01 T10331104  RH  058%=      5-min Rain = 0
KCA1 111533Z 34025G31KT M03/M10 A3001 RMK A01 T10321104  RH  057%=      5-min Rain = 0
KCA1 111534Z 34027G32KT M03/M11 A3001 RMK A01 T10321105  RH  057%=      5-min Rain = 0
KCA1 111535Z 35027G33KT M03/M11 A3001 RMK A01 T10331107  RH  056%=      5-min Rain = 0
KCA1 111536Z 34026G32KT M03/M11 A3001 RMK A01 T10341108  RH  056%=      5-min Rain = 0
KCA1 111537Z 34024G31KT M03/M11 A3002 RMK A01 T10341108  RH  056%=      5-min Rain = 0
KCA1 111538Z 34022G28KT M03/M11 A3002 RMK A01 T10331107  RH  057%=      5-min Rain = 0
KCA1 111539Z 34030G35KT M03/M11 A3002 RMK A01 T10321107  RH  056%=      5-min Rain = 0
KCA1 111540Z 35027G34KT M03/M11 A3002 RMK A01 T10341110  RH  056%=      5-min Rain = 0
KCA1 111541Z 34025G32KT M03/M11 A3002 RMK A01 T10341109  RH  056%=      5-min Rain = 0
KCA1 111542Z 34028G34KT M03/M11 A3002 RMK A01 T10331109  RH  056%=      5-min Rain = 0
KCA1 111543Z 34025G31KT M03/M11 A3002 RMK A01 T10321109  RH  055%=      5-min Rain = 0
KCA1 111544Z 34027G32KT M03/M11 A3002 RMK A01 T10331111  RH  055%=      5-min Rain = 0
KCA1 111545Z 34023G30KT M03/M11 A3003 RMK A01 T10331111  RH  055%=      5-min Rain = 0
KCA1 111546Z 35022G28KT M03/M11 A3003 RMK A01 T10321109  RH  055%=      5-min Rain = 0
KCA1 111547Z 35026G36KT M03/M11 A3003 RMK A01 T10301108  RH  055%=      5-min Rain = 0
KCA1 111548Z 34026G32KT M03/M11 A3003 RMK A01 T10301110  RH  054%=      5-min Rain = 0
KCA1 111549Z 34031KT M03/M11 A3003 RMK A01 T10311111  RH  054%=      5-min Rain = 0
KCA1 111550Z 34025G33KT M03/M11 A3003 RMK A01 T10311111  RH  054%=      5-min Rain = 0
KCA1 111551Z 34029G36KT M03/M11 A3003 RMK A01 T10301111  RH  054%=      5-min Rain = 0
KCA1 111552Z 34027G34KT M03/M11 A3004 RMK A01 T10301111  RH  053%=      5-min Rain = 0
KCA1 111553Z 34029G38KT M03/M11 A3004 RMK A01 T10301112  RH  053%=      5-min Rain = 0
KCA1 111554Z 34030G35KT M03/M11 A3003 RMK A01 T10301112  RH  053%=      5-min Rain = 0
KCA1 111555Z 34026G33KT M03/M11 A3004 RMK A01 T10301113  RH  053%=      5-min Rain = 0
KCA1 111556Z 34028G37KT M03/M11 A3004 RMK A01 T10291112  RH  053%=      5-min Rain = 0
KCA1 111557Z 34031KT M03/M11 A3004 RMK A01 T10281112  RH  052%=      5-min Rain = 0
KCA1 111558Z 35024G29KT M03/M11 A3004 RMK A01 T10281113  RH  052%=      5-min Rain = 0
KCA1 111559Z 35020G26KT M03/M11 A3004 RMK A01 T10271111  RH  053%=      5-min Rain = 0
KCA1 111600Z 35026G32KT M03/M11 A3004 RMK A01 T10261110  RH  052%=      5-min Rain = 0
KCA1 111601Z 34023G30KT M03/M11 A3004 RMK A01 T10271111  RH  052%=      5-min Rain = 0
KCA1 111602Z 34026G32KT M03/M11 A3004 RMK A01 T10261111  RH  052%=      5-min Rain = 0
KCA1 111603Z 34027G33KT M03/M11 A3004 RMK A01 T10261111  RH  052%=      5-min Rain = 0
KCA1 111604Z 35023G30KT M03/M11 A3004 RMK A01 T10261112  RH  052%=      5-min Rain = 0
KCA1 111605Z 34023G28KT M03/M11 A3004 RMK A01 T10261111  RH  052%=      5-min Rain = 0
KCA1 111606Z 34028G34KT M03/M11 A3004 RMK A01 T10251111  RH  052%=      5-min Rain = 0
KCA1 111607Z 34026G33KT M03/M11 A3004 RMK A01 T10251111  RH  051%=      5-min Rain = 0
KCA1 111608Z 35029G35KT M03/M11 A3004 RMK A01 T10261112  RH  051%=      5-min Rain = 0
KCA1 111609Z 34034G40KT M03/M11 A3004 RMK A01 T10261113  RH  051%=      5-min Rain = 0
KCA1 111610Z 35033G38KT M03/M12 A3004 RMK A01 T10281115  RH  051%=      5-min Rain = 0
KCA1 111611Z 35027G35KT M03/M12 A3004 RMK A01 T10281115  RH  051%=      5-min Rain = 0
KCA1 111612Z 34028G36KT M03/M11 A3004 RMK A01 T10271113  RH  052%=      5-min Rain = 0
KCA1 111613Z 34029G37KT M03/M11 A3004 RMK A01 T10261112  RH  052%=      5-min Rain = 0
KCA1 111614Z 35037KT M03/M11 A3004 RMK A01 T10251113  RH  051%=      5-min Rain = 0
KCA1 111615Z 35033G38KT M03/M12 A3004 RMK A01 T10271115  RH  051%=      5-min Rain = 0
KCA1 111616Z 35031G42KT M03/M12 A3004 RMK A01 T10271115  RH  051%=      5-min Rain = 0
KCA1 111617Z 34026G31KT M03/M11 A3004 RMK A01 T10261114  RH  051%=      5-min Rain = 0
KCA1 111618Z 34026G32KT M02/M11 A3005 RMK A01 T10241112  RH  051%=      5-min Rain = 0
KCA1 111619Z 34026G33KT M02/M11 A3005 RMK A01 T10231110  RH  051%=      5-min Rain = 0
KCA1 111620Z 34028G34KT M02/M11 A3005 RMK A01 T10221110  RH  051%=      5-min Rain = 0
KCA1 111621Z 35030G35KT M02/M11 A3005 RMK A01 T10231112  RH  050%=      5-min Rain = 0
KCA1 111622Z 35025KT M02/M11 A3005 RMK A01 T10231111  RH  051%=      5-min Rain = 0
KCA1 111623Z 34026G33KT M02/M11 A3005 RMK A01 T10221110  RH  051%=      5-min Rain = 0
KCA1 111624Z 34021G28KT M02/M11 A3005 RMK A01 T10221110  RH  051%=      5-min Rain = 0
KCA1 111625Z 34024G31KT M02/M11 A3005 RMK A01 T10191107  RH  051%=      5-min Rain = 0
KCA1 111626Z 34026G33KT M02/M11 A3005 RMK A01 T10181107  RH  051%=      5-min Rain = 0
KCA1 111627Z 34031G37KT M02/M11 A3005 RMK A01 T10181109  RH  050%=      5-min Rain = 0
KCA1 111628Z 34029G39KT M02/M11 A3005 RMK A01 T10191111  RH  049%=      5-min Rain = 0
KCA1 111629Z 35028G36KT M02/M11 A3005 RMK A01 T10191111  RH  050%=      5-min Rain = 0
KCA1 111630Z 35029G34KT M02/M11 A3005 RMK A01 T10191111  RH  050%=      5-min Rain = 0
KCA1 111631Z 35024G30KT M02/M11 A3005 RMK A01 T10201111  RH  050%=      5-min Rain = 0
KCA1 111632Z 35029G35KT M02/M11 A3005 RMK A01 T10191109  RH  050%=      5-min Rain = 0
KCA1 111633Z 36030G36KT M02/M11 A3005 RMK A01 T10181109  RH  050%=      5-min Rain = 0
KCA1 111634Z 35023G31KT M02/M11 A3005 RMK A01 T10181110  RH  049%=      5-min Rain = 0
KCA1 111635Z 00032KT M02/M11 A3005 RMK A01 T10181109  RH  050%=      5-min Rain = 0
KCA1 111636Z 35025G37KT M02/M11 A3006 RMK A01 T10201111  RH  050%=      5-min Rain = 0
KCA1 111637Z 34026G33KT M02/M11 A3005 RMK A01 T10201109  RH  050%=      5-min Rain = 0
KCA1 111638Z 34027G32KT M02/M11 A3006 RMK A01 T10181108  RH  050%=      5-min Rain = 0
KCA1 111639Z 34030KT M02/M11 A3006 RMK A01 T10181108  RH  050%=      5-min Rain = 0
KCA1 111640Z 34027KT M02/M11 A3006 RMK A01 T10181109  RH  050%=      5-min Rain = 0
KCA1 111641Z 35026G32KT M02/M11 A3006 RMK A01 T10171108  RH  050%=      5-min Rain = 0
KCA1 111642Z 34023G31KT M02/M11 A3006 RMK A01 T10161109  RH  049%=      5-min Rain = 0
KCA1 111643Z 34021G27KT M01/M11 A3007 RMK A01 T10141107  RH  049%=      5-min Rain = 0
KCA1 111644Z 35023G28KT M01/M10 A3007 RMK A01 T10111104  RH  049%=      5-min Rain = 0
KCA1 111645Z 34026G33KT M01/M11 A3007 RMK A01 T10091105  RH  048%=      5-min Rain = 0
KCA1 111646Z 34028G33KT M01/M11 A3007 RMK A01 T10101108  RH  047%=      5-min Rain = 0
KCA1 111647Z 34024G31KT M01/M11 A3007 RMK A01 T10121109  RH  048%=      5-min Rain = 0
KCA1 111648Z 34023G29KT M01/M11 A3008 RMK A01 T10111109  RH  047%=      5-min Rain = 0
KCA1 111649Z 35023G29KT M01/M11 A3008 RMK A01 T10091108  RH  047%=      5-min Rain = 0
KCA1 111650Z 35026G31KT M01/M11 A3008 RMK A01 T10071108  RH  046%=      5-min Rain = 0
KCA1 111651Z 34026KT M01/M11 A3008 RMK A01 T10081109  RH  046%=      5-min Rain = 0
KCA1 111652Z 35026KT M01/M11 A3008 RMK A01 T10091110  RH  046%=      5-min Rain = 0
KCA1 111653Z 34023G30KT M01/M11 A3008 RMK A01 T10101109  RH  047%=      5-min Rain = 0
KCA1 111654Z 35027G32KT M01/M11 A3008 RMK A01 T10091108  RH  047%=      5-min Rain = 0
KCA1 111655Z 35025G34KT M01/M11 A3008 RMK A01 T10091108  RH  047%=      5-min Rain = 0
KCA1 111656Z 34032G38KT M01/M11 A3008 RMK A01 T10091109  RH  047%=      5-min Rain = 0
KCA1 111657Z 35029G36KT M01/M11 A3008 RMK A01 T10101111  RH  046%=      5-min Rain = 0
KCA1 111658Z 34027G32KT M01/M11 A3008 RMK A01 T10101111  RH  046%=      5-min Rain = 0
KCA1 111659Z 33027G32KT M01/M11 A3008 RMK A01 T10081110  RH  046%=      5-min Rain = 0
KCA1 111700Z 34024G31KT M01/M11 A3009 RMK A01 T10051108  RH  046%=      5-min Rain = 0
KCA1 111701Z 35029G35KT M00/M11 A3009 RMK A01 T10041109  RH  045%=      5-min Rain = 0
KCA1 111702Z 34025G32KT M01/M11 A3009 RMK A01 T10051111  RH  044%=      5-min Rain = 0
KCA1 111703Z 35026G32KT M01/M11 A3009 RMK A01 T10051111  RH  045%=      5-min Rain = 0
KCA1 111704Z 35030G35KT M01/M11 A3009 RMK A01 T10061112  RH  045%=      5-min Rain = 0
KCA1 111705Z 35026G33KT M01/M11 A3009 RMK A01 T10071114  RH  044%=      5-min Rain = 0
KCA1 111706Z 35027KT M01/M11 A3009 RMK A01 T10081114  RH  045%=      5-min Rain = 0
KCA1 111707Z 35031G40KT M01/M12 A3008 RMK A01 T10101115  RH  045%=      5-min Rain = 0
KCA1 111708Z 35028KT M01/M11 A3009 RMK A01 T10111114  RH  045%=      5-min Rain = 0
KCA1 111709Z 35025G32KT M01/M11 A3009 RMK A01 T10111113  RH  046%=      5-min Rain = 0
KCA1 111710Z 35026G32KT M01/M11 A3009 RMK A01 T10111111  RH  047%=      5-min Rain = 0
KCA1 111711Z 35026G33KT M01/M11 A3009 RMK A01 T10111111  RH  047%=      5-min Rain = 0
KCA1 111712Z 35028G33KT M01/M11 A3009 RMK A01 T10111111  RH  047%=      5-min Rain = 0
KCA1 111713Z 35027G33KT M01/M11 A3009 RMK A01 T10111112  RH  046%=      5-min Rain = 0
KCA1 111714Z 35026G33KT M01/M11 A3009 RMK A01 T10121112  RH  047%=      5-min Rain = 0
KCA1 111715Z 34026G31KT M01/M11 A3009 RMK A01 T10111111  RH  047%=      5-min Rain = 0
KCA1 111716Z 35028G33KT M01/M11 A3009 RMK A01 T10111110  RH  047%=      5-min Rain = 0
KCA1 111717Z 35031KT M01/M11 A301 RMK A01 T10101111  RH  046%=      5-min Rain = 0
KCA1 111718Z 35029G36KT M01/M11 A3009 RMK A01 T10101112  RH  046%=      5-min Rain = 0
KCA1 111719Z 35026G32KT M01/M11 A301 RMK A01 T10101111  RH  046%=      5-min Rain = 0
KCA1 111720Z 36024KT M01/M11 A301 RMK A01 T10091110  RH  046%=      5-min Rain = 0
KCA1 111721Z 35024G30KT M01/M11 A3009 RMK A01 T10081108  RH  047%=      5-min Rain = 0
KCA1 111722Z 35021G29KT M01/M11 A301 RMK A01 T10081108  RH  047%=      5-min Rain = 0
KCA1 111723Z 34019G25KT M01/M11 A301 RMK A01 T10071106  RH  047%=      5-min Rain = 0
KCA1 111724Z 34021KT M01/M11 A301 RMK A01 T10071106  RH  047%=      5-min Rain = 0
KCA1 111725Z 34018KT M01/M10 A301 RMK A01 T10071104  RH  048%=      5-min Rain = 0
KCA1 111726Z 34021G26KT M01/M10 A301 RMK A01 T10071103  RH  048%=      5-min Rain = 0
KCA1 111727Z 35022G27KT M01/M10 A301 RMK A01 T10081104  RH  048%=      5-min Rain = 0
KCA1 111728Z 35023G28KT M01/M11 A301 RMK A01 T10101105  RH  048%=      5-min Rain = 0
KCA1 111729Z 35024G31KT M01/M11 A301 RMK A01 T10111106  RH  048%=      5-min Rain = 0
KCA1 111730Z 34021G29KT M01/M11 A301 RMK A01 T10121107  RH  049%=      5-min Rain = 0
KCA1 111731Z 34026G33KT M01/M11 A301 RMK A01 T10101106  RH  048%=      5-min Rain = 0
KCA1 111732Z 34027G34KT M01/M11 A301 RMK A01 T10101108  RH  048%=      5-min Rain = 0
KCA1 111733Z 34026G32KT M01/M11 A301 RMK A01 T10111109  RH  047%=      5-min Rain = 0
KCA1 111734Z 34022G29KT M01/M11 A301 RMK A01 T10121109  RH  048%=      5-min Rain = 0
KCA1 111735Z 34024KT M01/M11 A301 RMK A01 T10101107  RH  048%=      5-min Rain = 0
KCA1 111736Z 34026KT M01/M11 A301 RMK A01 T10091107  RH  048%=      5-min Rain = 0
KCA1 111737Z 34022G27KT M01/M11 A301 RMK A01 T10111108  RH  048%=      5-min Rain = 0
KCA1 111738Z 34025KT M01/M11 A301 RMK A01 T10101107  RH  048%=      5-min Rain = 0
KCA1 111739Z 34026G31KT M01/M11 A301 RMK A01 T10101107  RH  048%=      5-min Rain = 0
KCA1 111740Z 34027G32KT M01/M11 A301 RMK A01 T10101108  RH  047%=      5-min Rain = 0
KCA1 111741Z 34027KT M01/M11 A3011 RMK A01 T10101108  RH  047%=      5-min Rain = 0
KCA1 111742Z 35027G32KT M01/M11 A3011 RMK A01 T10101107  RH  048%=      5-min Rain = 0
KCA1 111743Z 34024G33KT M01/M11 A3011 RMK A01 T10091106  RH  048%=      5-min Rain = 0
KCA1 111744Z 34025G30KT M01/M11 A3011 RMK A01 T10071105  RH  048%=      5-min Rain = 0
KCA1 111745Z 33026G31KT M01/M11 A3011 RMK A01 T10071107  RH  047%=      5-min Rain = 0
KCA1 111746Z 34026KT M01/M11 A3011 RMK A01 T10071108  RH  046%=      5-min Rain = 0
KCA1 111747Z 34026G35KT M01/M11 A3011 RMK A01 T10071108  RH  046%=      5-min Rain = 0
KCA1 111748Z 35028G33KT M01/M11 A3011 RMK A01 T10061108  RH  046%=      5-min Rain = 0
KCA1 111749Z 34023G29KT M01/M11 A3011 RMK A01 T10061110  RH  045%=      5-min Rain = 0
KCA1 111750Z 34022G27KT M01/M11 A3011 RMK A01 T10051108  RH  046%=      5-min Rain = 0
KCA1 111751Z 35023G31KT M00/M11 A3011 RMK A01 T10021106  RH  045%=      5-min Rain = 0
KCA1 111752Z 35028G33KT M00/M11 A3011 RMK A01 T10031108  RH  045%=      5-min Rain = 0
KCA1 111753Z 35022G29KT M01/M11 A3011 RMK A01 T10051110  RH  045%=      5-min Rain = 0
KCA1 111754Z 34022G29KT M01/M11 A3011 RMK A01 T10061111  RH  045%=      5-min Rain = 0
KCA1 111755Z 34030KT M01/M11 A3011 RMK A01 T10051109  RH  045%=      5-min Rain = 0
KCA1 111756Z 35026G33KT M01/M11 A3011 RMK A01 T10071110  RH  045%=      5-min Rain = 0
KCA1 111757Z 34028G33KT M01/M11 A3011 RMK A01 T10071109  RH  046%=      5-min Rain = 0
KCA1 111758Z 34028KT M01/M11 A3011 RMK A01 T10071110  RH  046%=      5-min Rain = 0
KCA1 111759Z 34027KT M01/M11 A3011 RMK A01 T10071110  RH  046%=      5-min Rain = 0
KCA1 111800Z 35030KT M01/M11 A3011 RMK A01 T10071111  RH  045%=      5-min Rain = 0
KCA1 111801Z 35030G35KT M01/M11 A3011 RMK A01 T10081112  RH  045%=      5-min Rain = 0
KCA1 111802Z 35027KT M01/M11 A3012 RMK A01 T10091112  RH  046%=      5-min Rain = 0
KCA1 111803Z 33026G31KT M01/M11 A3011 RMK A01 T10091110  RH  046%=      5-min Rain = 0
KCA1 111804Z 34024G30KT M01/M11 A3011 RMK A01 T10091108  RH  047%=      5-min Rain = 0
KCA1 111805Z 34024G30KT M01/M11 A3011 RMK A01 T10071107  RH  047%=      5-min Rain = 0
KCA1 111806Z 35031KT M01/M11 A3011 RMK A01 T10061108  RH  046%=      5-min Rain = 0
KCA1 111807Z 35027G32KT M01/M11 A3011 RMK A01 T10071110  RH  045%=      5-min Rain = 0
KCA1 111808Z 34023G28KT M01/M11 A3011 RMK A01 T10071109  RH  046%=      5-min Rain = 0
KCA1 111809Z 34022G29KT M01/M11 A3011 RMK A01 T10061108  RH  046%=      5-min Rain = 0
KCA1 111810Z 34023G28KT M01/M11 A3011 RMK A01 T10061107  RH  046%=      5-min Rain = 0
KCA1 111811Z 34024G31KT M01/M11 A3011 RMK A01 T10061106  RH  047%=      5-min Rain = 0
KCA1 111812Z 35029KT M01/M11 A3011 RMK A01 T10051106  RH  046%=      5-min Rain = 0
KCA1 111813Z 35029G37KT M01/M11 A3011 RMK A01 T10051108  RH  046%=      5-min Rain = 0
KCA1 111814Z 34028G33KT M01/M11 A3011 RMK A01 T10061110  RH  045%=      5-min Rain = 0
KCA1 111815Z 35030KT M01/M11 A3011 RMK A01 T10051111  RH  045%=      5-min Rain = 0
KCA1 111816Z 35030G35KT M00/M11 A3011 RMK A01 T10041111  RH  044%=      5-min Rain = 0
KCA1 111817Z 35024G33KT M00/M11 A3011 RMK A01 T10041112  RH  044%=      5-min Rain = 0
KCA1 111818Z 35021G26KT M00/M11 A3011 RMK A01 T10021109  RH  044%=      5-min Rain = 0
KCA1 111819Z 35024G32KT 00/11 A3011 RMK A01 T00000-107  RH  044%=      5-min Rain = 0
KCA1 111820Z 35024KT M00/M11 A3011 RMK A01 T10031110  RH  044%=      5-min Rain = 0
KCA1 111821Z 35026G31KT M01/M11 A3011 RMK A01 T10051111  RH  045%=      5-min Rain = 0
KCA1 111822Z 34024G30KT M01/M11 A3011 RMK A01 T10071110  RH  046%=      5-min Rain = 0
KCA1 111823Z 34024G31KT M01/M11 A3011 RMK A01 T10071110  RH  046%=      5-min Rain = 0
KCA1 111824Z 35023G29KT M01/M11 A3011 RMK A01 T10071109  RH  046%=      5-min Rain = 0
KCA1 111825Z 35020G27KT M01/M11 A3011 RMK A01 T10061109  RH  046%=      5-min Rain = 0
KCA1 111826Z 34024KT M01/M11 A3011 RMK A01 T10061109  RH  045%=      5-min Rain = 0
KCA1 111827Z 35025G32KT M01/M11 A3011 RMK A01 T10071111  RH  045%=      5-min Rain = 0
KCA1 111828Z 35023G29KT M01/M11 A3011 RMK A01 T10081110  RH  046%=      5-min Rain = 0
KCA1 111829Z 35026G31KT M01/M11 A3011 RMK A01 T10081110  RH  046%=      5-min Rain = 0
KCA1 111830Z 34027KT M01/M11 A3011 RMK A01 T10081110  RH  046%=      5-min Rain = 0
KCA1 111831Z 35027G32KT M01/M11 A3011 RMK A01 T10081111  RH  046%=      5-min Rain = 0
KCA1 111832Z 35021G26KT M01/M11 A3011 RMK A01 T10091110  RH  046%=      5-min Rain = 0
KCA1 111833Z 35021G27KT M01/M11 A3011 RMK A01 T10061107  RH  046%=      5-min Rain = 0
KCA1 111834Z 34022KT M00/M11 A3011 RMK A01 T10041107  RH  046%=      5-min Rain = 0
KCA1 111835Z 34025G30KT M00/M11 A3011 RMK A01 T10031108  RH  045%=      5-min Rain = 0
KCA1 111836Z 34027G32KT M00/M11 A3011 RMK A01 T10031110  RH  044%=      5-min Rain = 0
KCA1 111837Z 34027G32KT M00/M11 A3011 RMK A01 T10031110  RH  044%=      5-min Rain = 0
KCA1 111838Z 34027G35KT M00/M11 A3011 RMK A01 T10031111  RH  044%=      5-min Rain = 0
KCA1 111839Z 34025KT M00/M11 A3011 RMK A01 T10041112  RH  044%=      5-min Rain = 0
KCA1 111840Z 34029KT M01/M11 A3011 RMK A01 T10051113  RH  044%=      5-min Rain = 0
KCA1 111841Z 35028KT M01/M11 A3012 RMK A01 T10061114  RH  044%=      5-min Rain = 0
KCA1 111842Z 34028G34KT M01/M12 A3011 RMK A01 T10081115  RH  044%=      5-min Rain = 0
KCA1 111843Z 34027G32KT M01/M12 A3011 RMK A01 T10091115  RH  044%=      5-min Rain = 0
KCA1 111844Z 35027G35KT M01/M12 A3011 RMK A01 T10091115  RH  045%=      5-min Rain = 0
KCA1 111845Z 34022G28KT M01/M12 A3012 RMK A01 T10091115  RH  044%=      5-min Rain = 0
KCA1 111846Z 34022G28KT M01/M11 A3012 RMK A01 T10071113  RH  044%=      5-min Rain = 0
KCA1 111847Z 34024G31KT M00/M11 A3012 RMK A01 T10041112  RH  044%=      5-min Rain = 0
KCA1 111848Z 35026G32KT M00/M11 A3012 RMK A01 T10041114  RH  043%=      5-min Rain = 0
KCA1 111849Z 34029G34KT M01/M12 A3012 RMK A01 T10051116  RH  043%=      5-min Rain = 0
KCA1 111850Z 34029G35KT M01/M12 A3012 RMK A01 T10061118  RH  043%=      5-min Rain = 0
KCA1 111851Z 34031G36KT M01/M12 A3012 RMK A01 T10061118  RH  043%=      5-min Rain = 0
KCA1 111852Z 34027G35KT M01/M12 A3012 RMK A01 T10071118  RH  043%=      5-min Rain = 0
KCA1 111853Z 34026G33KT M01/M12 A3012 RMK A01 T10071118  RH  043%=      5-min Rain = 0
KCA1 111854Z 34027KT M01/M12 A3012 RMK A01 T10051116  RH  043%=      5-min Rain = 0
KCA1 111855Z 35026G31KT M00/M12 A3012 RMK A01 T10041116  RH  043%=      5-min Rain = 0
KCA1 111856Z 35024G29KT M00/M12 A3013 RMK A01 T10031116  RH  042%=      5-min Rain = 0
KCA1 111857Z 34023G29KT M00/M11 A3012 RMK A01 T10021114  RH  043%=      5-min Rain = 0
KCA1 111858Z 34023G28KT M00/M11 A3013 RMK A01 T10011113  RH  043%=      5-min Rain = 0
KCA1 111859Z 34023G28KT M00/M11 A3012 RMK A01 T10021112  RH  043%=      5-min Rain = 0
KCA1 111900Z 34025G30KT M00/M11 A3013 RMK A01 T10021112  RH  043%=      5-min Rain = 0
KCA1 111901Z 34026KT M00/M11 A3013 RMK A01 T10031112  RH  043%=      5-min Rain = 0
KCA1 111902Z 34024G30KT M00/M11 A3013 RMK A01 T10031111  RH  044%=      5-min Rain = 0
KCA1 111903Z 33021KT M00/M11 A3013 RMK A01 T10021110  RH  044%=      5-min Rain = 0
KCA1 111904Z 35022G29KT M00/M11 A3013 RMK A01 T10011109  RH  044%=      5-min Rain = 0
KCA1 111905Z 34023KT M00/M11 A3013 RMK A01 T10011110  RH  044%=      5-min Rain = 0
KCA1 111906Z 34022KT 00/11 A3013 RMK A01 T00000-109  RH  044%=      5-min Rain = 0
KCA1 111907Z 34022G30KT 00/M11 A3013 RMK A01 T00021107  RH  044%=      5-min Rain = 0
KCA1 111908Z 35024KT 00/M11 A3013 RMK A01 T00031107  RH  043%=      5-min Rain = 0
KCA1 111909Z 34022G32KT 00/M11 A3013 RMK A01 T00021109  RH  043%=      5-min Rain = 0
KCA1 111910Z 34028KT 00/M11 A3013 RMK A01 T00031109  RH  043%=      5-min Rain = 0
KCA1 111911Z 35026KT 00/M11 A3013 RMK A01 T00041111  RH  042%=      5-min Rain = 0
KCA1 111912Z 35024G31KT 00/M11 A3013 RMK A01 T00041112  RH  042%=      5-min Rain = 0
KCA1 111913Z 34024G31KT 01/M11 A3013 RMK A01 T00051111  RH  041%=      5-min Rain = 0
KCA1 111914Z 35027KT 01/M11 A3013 RMK A01 T00061110  RH  042%=      5-min Rain = 0
KCA1 111915Z 35027G34KT 00/M11 A3013 RMK A01 T00041110  RH  042%=      5-min Rain = 0
KCA1 111916Z 35022G27KT 00/M11 A3013 RMK A01 T00031109  RH  043%=      5-min Rain = 0
KCA1 111917Z 35021G27KT 00/M11 A3013 RMK A01 T00021108  RH  043%=      5-min Rain = 0
KCA1 111918Z 35023KT 00/M11 A3013 RMK A01 T00031107  RH  043%=      5-min Rain = 0
KCA1 111919Z 35024G32KT 00/M11 A3013 RMK A01 T00031107  RH  043%=      5-min Rain = 0
KCA1 111920Z 35027G34KT 00/M11 A3014 RMK A01 T00041109  RH  042%=      5-min Rain = 0
KCA1 111921Z 34023G30KT 00/M11 A3013 RMK A01 T00031111  RH  042%=      5-min Rain = 0
KCA1 111922Z 33025G31KT 01/M11 A3013 RMK A01 T00051108  RH  042%=      5-min Rain = 0
KCA1 111923Z 33026KT 00/M11 A3013 RMK A01 T00031110  RH  042%=      5-min Rain = 0
KCA1 111924Z 33026KT 00/11 A3013 RMK A01 T00000-110  RH  043%=      5-min Rain = 0
KCA1 111925Z 34023KT 00/11 A3013 RMK A01 T00-00-108  RH  044%=      5-min Rain = 0
KCA1 111926Z 34020G26KT 00/M11 A3013 RMK A01 T00011106  RH  045%=      5-min Rain = 0
KCA1 111927Z 35017G26KT 01/M10 A3013 RMK A01 T00051103  RH  044%=      5-min Rain = 0
KCA1 111928Z 35022G28KT 01/M10 A3013 RMK A01 T00061103  RH  044%=      5-min Rain = 0
KCA1 111929Z 35020G25KT 01/M10 A3013 RMK A01 T00061104  RH  043%=      5-min Rain = 0
KCA1 111930Z 34019KT 01/M10 A3013 RMK A01 T00071104  RH  043%=      5-min Rain = 0
KCA1 111931Z 34017G22KT 01/M10 A3013 RMK A01 T00101101  RH  043%=      5-min Rain = 0
KCA1 111932Z 34024KT 01/M10 A3014 RMK A01 T00131100  RH  043%=      5-min Rain = 0
KCA1 111933Z 34022KT 01/M10 A3013 RMK A01 T00101104  RH  042%=      5-min Rain = 0
KCA1 111934Z 34027KT 01/M10 A3013 RMK A01 T00081104  RH  043%=      5-min Rain = 0
KCA1 111935Z 34025KT 01/M11 A3013 RMK A01 T00061106  RH  043%=      5-min Rain = 0
KCA1 111936Z 34026KT 01/M11 A3013 RMK A01 T00061105  RH  043%=      5-min Rain = 0
KCA1 111937Z 34021KT 01/M11 A3013 RMK A01 T00051105  RH  044%=      5-min Rain = 0
KCA1 111938Z 34021G26KT 01/M10 A3013 RMK A01 T00061103  RH  044%=      5-min Rain = 0
KCA1 111939Z 35026G32KT 01/M10 A3013 RMK A01 T00091101  RH  044%=      5-min Rain = 0
KCA1 111940Z 34023KT 01/M10 A3013 RMK A01 T00081103  RH  043%=      5-min Rain = 0
KCA1 111941Z 34022G27KT 01/M10 A3013 RMK A01 T00061103  RH  044%=      5-min Rain = 0
KCA1 111942Z 34024G31KT 01/M10 A3013 RMK A01 T00061102  RH  044%=      5-min Rain = 0
KCA1 111943Z 33029G34KT 01/M10 A3013 RMK A01 T00071103  RH  044%=      5-min Rain = 0
KCA1 111944Z 34028G33KT 01/M11 A3013 RMK A01 T00061105  RH  043%=      5-min Rain = 0
KCA1 111945Z 34024G31KT 01/M11 A3013 RMK A01 T00051106  RH  043%=      5-min Rain = 0
KCA1 111946Z 34028KT 01/M11 A3013 RMK A01 T00051105  RH  044%=      5-min Rain = 0
KCA1 111947Z 34025KT 00/M11 A3013 RMK A01 T00021107  RH  043%=      5-min Rain = 0
KCA1 111948Z 34022G27KT 00/M11 A3013 RMK A01 T00021107  RH  044%=      5-min Rain = 0
KCA1 111949Z 34030G35KT 00/M11 A3013 RMK A01 T00031107  RH  043%=      5-min Rain = 0
KCA1 111950Z 35026G31KT 00/M11 A3013 RMK A01 T00031108  RH  043%=      5-min Rain = 0
KCA1 111951Z 34030KT 00/M11 A3013 RMK A01 T00031108  RH  043%=      5-min Rain = 0
KCA1 111952Z 34027G34KT 00/M11 A3013 RMK A01 T00031110  RH  043%=      5-min Rain = 0
KCA1 111953Z 34027G36KT 00/M11 A3012 RMK A01 T00021110  RH  043%=      5-min Rain = 0
KCA1 111954Z 33023G29KT 00/M11 A3013 RMK A01 T00031109  RH  043%=      5-min Rain = 0
KCA1 111955Z 34021KT 00/M11 A3013 RMK A01 T00041107  RH  043%=      5-min Rain = 0
KCA1 111956Z 35024G29KT 01/M10 A3013 RMK A01 T00071104  RH  043%=      5-min Rain = 0
KCA1 111957Z 34023G28KT 01/M11 A3013 RMK A01 T00061105  RH  043%=      5-min Rain = 0
KCA1 111958Z 34023KT 00/M11 A3013 RMK A01 T00041105  RH  044%=      5-min Rain = 0
KCA1 111959Z 34024G29KT 00/M10 A3013 RMK A01 T00041103  RH  044%=      5-min Rain = 0
KCA1 112000Z 34018G24KT 00/M10 A3013 RMK A01 T00031102  RH  045%=      5-min Rain = 0
KCA1 112001Z 33022KT 00/M10 A3013 RMK A01 T00041102  RH  045%=      5-min Rain = 0
KCA1 112002Z 32023KT 00/M10 A3013 RMK A01 T00031104  RH  044%=      5-min Rain = 0
KCA1 112003Z 34021G26KT 00/M10 A3013 RMK A01 T00031104  RH  044%=      5-min Rain = 0
KCA1 112004Z 35025KT 01/M10 A3013 RMK A01 T00051103  RH  044%=      5-min Rain = 0
KCA1 112005Z 34024G30KT 01/M11 A3013 RMK A01 T00051106  RH  043%=      5-min Rain = 0
KCA1 112006Z 34025KT 00/M11 A3013 RMK A01 T00041109  RH  043%=      5-min Rain = 0
KCA1 112007Z 35026G32KT 00/M11 A3013 RMK A01 T00041110  RH  042%=      5-min Rain = 0
KCA1 112008Z 35026G31KT 00/M11 A3013 RMK A01 T00041112  RH  042%=      5-min Rain = 0
KCA1 112009Z 35026G32KT 00/M11 A3013 RMK A01 T00011114  RH  042%=      5-min Rain = 0
KCA1 112010Z 35027G33KT 00/M11 A3013 RMK A01 T00011112  RH  042%=      5-min Rain = 0
KCA1 112011Z 35022G30KT 00/M11 A3013 RMK A01 T00021112  RH  042%=      5-min Rain = 0
KCA1 112012Z 35021G27KT 00/M11 A3013 RMK A01 T00031110  RH  042%=      5-min Rain = 0
KCA1 112013Z 35022G28KT 01/M11 A3013 RMK A01 T00051108  RH  042%=      5-min Rain = 0
KCA1 112014Z 33020G25KT 01/M11 A3013 RMK A01 T00061107  RH  043%=      5-min Rain = 0
KCA1 112015Z 33021KT 01/M11 A3013 RMK A01 T00061105  RH  043%=      5-min Rain = 0
KCA1 112016Z 33023KT 00/M11 A3013 RMK A01 T00031106  RH  044%=      5-min Rain = 0
KCA1 112017Z 34019G24KT 00/M10 A3013 RMK A01 T00021104  RH  045%=      5-min Rain = 0
KCA1 112018Z 34018G25KT 00/M10 A3013 RMK A01 T00041100  RH  045%=      5-min Rain = 0
KCA1 112019Z 34023KT 01/M10 A3013 RMK A01 T00081099  RH  045%=      5-min Rain = 0
KCA1 112020Z 34023G29KT 01/M10 A3013 RMK A01 T00061102  RH  044%=      5-min Rain = 0
KCA1 112021Z 34019KT 01/M10 A3013 RMK A01 T00051102  RH  045%=      5-min Rain = 0
KCA1 112022Z 34021KT 01/M10 A3013 RMK A01 T00051101  RH  045%=      5-min Rain = 0
KCA1 112023Z 34020KT 01/M10 A3013 RMK A01 T00051101  RH  045%=      5-min Rain = 0
KCA1 112024Z 33021KT 01/M10 A3013 RMK A01 T00071100  RH  045%=      5-min Rain = 0
KCA1 112025Z 33019G25KT 01/M10 A3013 RMK A01 T00071101  RH  044%=      5-min Rain = 0
KCA1 112026Z 34021G27KT 01/M10 A3013 RMK A01 T00081101  RH  044%=      5-min Rain = 0
KCA1 112027Z 35021KT 01/M10 A3014 RMK A01 T00091101  RH  044%=      5-min Rain = 0
KCA1 112028Z 34021G26KT 01/M10 A3013 RMK A01 T00071103  RH  044%=      5-min Rain = 0
KCA1 112029Z 35023G28KT 01/M10 A3013 RMK A01 T00061102  RH  044%=      5-min Rain = 0
KCA1 112030Z 34022KT 01/M10 A3013 RMK A01 T00061102  RH  044%=      5-min Rain = 0
KCA1 112031Z 34024G29KT 01/M10 A3013 RMK A01 T00061102  RH  044%=      5-min Rain = 0
KCA1 112032Z 35022G28KT 01/M10 A3014 RMK A01 T00061102  RH  044%=      5-min Rain = 0
KCA1 112033Z 35021G27KT 01/M10 A3014 RMK A01 T00071102  RH  044%=      5-min Rain = 0
KCA1 112034Z 35017G23KT 01/M10 A3014 RMK A01 T00071102  RH  044%=      5-min Rain = 0
KCA1 112035Z 34021G26KT 01/M10 A3014 RMK A01 T00091100  RH  044%=      5-min Rain = 0
KCA1 112036Z 34021G26KT 01/M10 A3014 RMK A01 T00091101  RH  044%=      5-min Rain = 0
KCA1 112037Z 33022KT 01/M10 A3014 RMK A01 T00101100  RH  044%=      5-min Rain = 0
KCA1 112038Z 34022KT 01/M10 A3014 RMK A01 T00091101  RH  044%=      5-min Rain = 0
KCA1 112039Z 33022KT 01/M10 A3014 RMK A01 T00091101  RH  044%=      5-min Rain = 0
KCA1 112040Z 33019G24KT 01/M10 A3014 RMK A01 T00101100  RH  043%=      5-min Rain = 0
KCA1 112041Z 34020KT 01/M10 A3014 RMK A01 T00131098  RH  043%=      5-min Rain = 0
KCA1 112042Z 34021KT 01/M10 A3014 RMK A01 T00141099  RH  043%=      5-min Rain = 0
KCA1 112043Z 34023KT 01/M10 A3014 RMK A01 T00111101  RH  043%=      5-min Rain = 0
KCA1 112044Z 34023G28KT 01/M10 A3014 RMK A01 T00111101  RH  043%=      5-min Rain = 0
KCA1 112045Z 34022KT 01/M10 A3014 RMK A01 T00101101  RH  043%=      5-min Rain = 0
KCA1 112046Z 34017KT 01/M10 A3014 RMK A01 T00111100  RH  043%=      5-min Rain = 0
KCA1 112047Z 35020G28KT 01/M10 A3014 RMK A01 T00131099  RH  043%=      5-min Rain = 0
KCA1 112048Z 35020G27KT 01/M10 A3014 RMK A01 T00141099  RH  043%=      5-min Rain = 0
KCA1 112049Z 34020G26KT 02/M10 A3014 RMK A01 T00151099  RH  043%=      5-min Rain = 0
KCA1 112050Z 33026KT 02/M10 A3014 RMK A01 T00161098  RH  042%=      5-min Rain = 0
KCA1 112051Z 34022G27KT 01/M10 A3014 RMK A01 T00131100  RH  043%=      5-min Rain = 0
KCA1 112052Z 35022KT 01/M10 A3014 RMK A01 T00131099  RH  043%=      5-min Rain = 0
KCA1 112053Z 34024KT 01/M10 A3014 RMK A01 T00121099  RH  043%=      5-min Rain = 0
KCA1 112054Z 35024G30KT 01/M10 A3014 RMK A01 T00121099  RH  043%=      5-min Rain = 0
KCA1 112055Z 35021G26KT 01/M10 A3014 RMK A01 T00121099  RH  043%=      5-min Rain = 0
KCA1 112056Z 35022KT 01/M10 A3014 RMK A01 T00131099  RH  043%=      5-min Rain = 0
KCA1 112057Z 34019G24KT 01/M10 A3014 RMK A01 T00121099  RH  043%=      5-min Rain = 0
KCA1 112058Z 35020KT 01/M10 A3014 RMK A01 T00131098  RH  043%=      5-min Rain = 0
KCA1 112059Z 35020G25KT 01/M10 A3014 RMK A01 T00131098  RH  043%=      5-min Rain = 0
KCA1 112100Z 33019G24KT 01/M10 A3014 RMK A01 T00141097  RH  043%=      5-min Rain = 0
KCA1 112101Z 33021KT 02/M10 A3014 RMK A01 T00161096  RH  043%=      5-min Rain = 0
KCA1 112102Z 34018KT 01/M10 A3014 RMK A01 T00141098  RH  043%=      5-min Rain = 0
KCA1 112103Z 34017KT 02/M10 A3014 RMK A01 T00161095  RH  043%=      5-min Rain = 0
KCA1 112104Z 34018KT 02/M09 A3015 RMK A01 T00181094  RH  043%=      5-min Rain = 0
KCA1 112105Z 34017KT 02/M10 A3015 RMK A01 T00181095  RH  043%=      5-min Rain = 0
KCA1 112106Z 35018KT 02/M10 A3015 RMK A01 T00181095  RH  043%=      5-min Rain = 0
KCA1 112107Z 34015G21KT 02/M10 A3015 RMK A01 T00171096  RH  043%=      5-min Rain = 0
KCA1 112108Z 34017KT 02/M10 A3015 RMK A01 T00171096  RH  043%=      5-min Rain = 0
KCA1 112109Z 34021KT 02/M10 A3014 RMK A01 T00181095  RH  043%=      5-min Rain = 0
KCA1 112110Z 33020KT 02/M10 A3015 RMK A01 T00181096  RH  043%=      5-min Rain = 0
KCA1 112111Z 33017G22KT 02/M10 A3015 RMK A01 T00171097  RH  043%=      5-min Rain = 0
KCA1 112112Z 33019G24KT 02/M10 A3015 RMK A01 T00171097  RH  043%=      5-min Rain = 0
KCA1 112113Z 34016G22KT 02/M10 A3015 RMK A01 T00171096  RH  043%=      5-min Rain = 0
KCA1 112114Z 33019KT 02/M10 A3015 RMK A01 T00171095  RH  043%=      5-min Rain = 0
KCA1 112115Z 34019G24KT 02/M10 A3015 RMK A01 T00171095  RH  043%=      5-min Rain = 0
KCA1 112116Z 34020KT 02/M10 A3015 RMK A01 T00161096  RH  043%=      5-min Rain = 0
KCA1 112117Z 34020KT 02/M10 A3015 RMK A01 T00161096  RH  043%=      5-min Rain = 0
KCA1 112118Z 35019KT 02/M10 A3015 RMK A01 T00161095  RH  043%=      5-min Rain = 0
KCA1 112119Z 34017KT 02/M10 A3015 RMK A01 T00161095  RH  043%=      5-min Rain = 0
KCA1 112120Z 34018G23KT 02/M10 A3015 RMK A01 T00161095  RH  044%=      5-min Rain = 0
KCA1 112121Z 35018KT 02/M10 A3015 RMK A01 T00171095  RH  043%=      5-min Rain = 0
KCA1 112122Z 34020G25KT 02/M10 A3015 RMK A01 T00161096  RH  043%=      5-min Rain = 0
KCA1 112123Z 34017KT 02/M10 A3015 RMK A01 T00161095  RH  043%=      5-min Rain = 0
KCA1 112124Z 34018KT 02/M09 A3015 RMK A01 T00161094  RH  044%=      5-min Rain = 0
KCA1 112125Z 34018KT 02/M09 A3015 RMK A01 T00171094  RH  044%=      5-min Rain = 0
KCA1 112126Z 33022G27KT 02/M09 A3015 RMK A01 T00171094  RH  043%=      5-min Rain = 0
KCA1 112127Z 33020G26KT 02/M10 A3015 RMK A01 T00161095  RH  044%=      5-min Rain = 0
KCA1 112128Z 34017KT 02/M10 A3015 RMK A01 T00151095  RH  044%=      5-min Rain = 0
KCA1 112129Z 34014KT 02/M09 A3015 RMK A01 T00151094  RH  044%=      5-min Rain = 0
KCA1 112130Z 33018KT 02/M09 A3015 RMK A01 T00161093  RH  044%=      5-min Rain = 0
KCA1 112131Z 34020G26KT 02/M09 A3015 RMK A01 T00181093  RH  044%=      5-min Rain = 0
KCA1 112132Z 35019KT 02/M10 A3015 RMK A01 T00161095  RH  043%=      5-min Rain = 0
KCA1 112133Z 33022G27KT 02/M10 A3015 RMK A01 T00161095  RH  044%=      5-min Rain = 0
KCA1 112134Z 35021G28KT 01/M10 A3015 RMK A01 T00141096  RH  044%=      5-min Rain = 0
KCA1 112135Z 34019KT 01/M10 A3015 RMK A01 T00141095  RH  044%=      5-min Rain = 0
KCA1 112136Z 34016G21KT 01/M09 A3016 RMK A01 T00141094  RH  044%=      5-min Rain = 0
KCA1 112137Z 33021KT 02/M09 A3016 RMK A01 T00161093  RH  044%=      5-min Rain = 0
KCA1 112138Z 34018KT 02/M09 A3016 RMK A01 T00151094  RH  044%=      5-min Rain = 0
KCA1 112139Z 34016G23KT 02/M09 A3016 RMK A01 T00151094  RH  044%=      5-min Rain = 0
KCA1 112140Z 33019G24KT 02/M09 A3016 RMK A01 T00161093  RH  044%=      5-min Rain = 0
KCA1 112141Z 33021G28KT 02/M09 A3016 RMK A01 T00161093  RH  044%=      5-min Rain = 0
KCA1 112142Z 33022G28KT 02/M09 A3016 RMK A01 T00161094  RH  044%=      5-min Rain = 0
KCA1 112143Z 34021KT 02/M09 A3016 RMK A01 T00161094  RH  044%=      5-min Rain = 0
KCA1 112144Z 34018G24KT 02/M09 A3016 RMK A01 T00151094  RH  044%=      5-min Rain = 0
KCA1 112145Z 34020KT 02/M09 A3016 RMK A01 T00161093  RH  044%=      5-min Rain = 0
KCA1 112146Z 33019G26KT 02/M09 A3016 RMK A01 T00171093  RH  044%=      5-min Rain = 0
KCA1 112147Z 34017KT 02/M09 A3016 RMK A01 T00171093  RH  044%=      5-min Rain = 0
KCA1 112148Z 35017G22KT 02/M09 A3017 RMK A01 T00191091  RH  044%=      5-min Rain = 0
KCA1 112149Z 34019G24KT 02/M09 A3016 RMK A01 T00191092  RH  044%=      5-min Rain = 0
KCA1 112150Z 35019G24KT 02/M09 A3016 RMK A01 T00171093  RH  044%=      5-min Rain = 0
KCA1 112151Z 34017G23KT 02/M09 A3017 RMK A01 T00171092  RH  044%=      5-min Rain = 0
KCA1 112152Z 34019KT 02/M09 A3017 RMK A01 T00171092  RH  044%=      5-min Rain = 0
KCA1 112153Z 34017KT 02/M09 A3017 RMK A01 T00171092  RH  044%=      5-min Rain = 0
KCA1 112154Z 33017KT 02/M09 A3017 RMK A01 T00171091  RH  044%=      5-min Rain = 0
KCA1 112155Z 33018KT 02/M09 A3017 RMK A01 T00171091  RH  044%=      5-min Rain = 0
KCA1 112156Z 34018KT 02/M09 A3017 RMK A01 T00171092  RH  044%=      5-min Rain = 0
KCA1 112157Z 34021KT 02/M09 A3016 RMK A01 T00171091  RH  044%=      5-min Rain = 0
KCA1 112158Z 34020G25KT 02/M09 A3017 RMK A01 T00161092  RH  044%=      5-min Rain = 0
KCA1 112159Z 34020G26KT 02/M09 A3017 RMK A01 T00161092  RH  045%=      5-min Rain = 0
KCA1 112200Z 34015KT 02/M09 A3017 RMK A01 T00161092  RH  045%=      5-min Rain = 0
KCA1 112201Z 33020KT 02/M09 A3017 RMK A01 T00171091  RH  045%=      5-min Rain = 0
KCA1 112202Z 33019KT 02/M09 A3017 RMK A01 T00161092  RH  044%=      5-min Rain = 0
KCA1 112203Z 33015KT 02/M09 A3017 RMK A01 T00161091  RH  045%=      5-min Rain = 0
KCA1 112204Z 34013KT 02/M09 A3017 RMK A01 T00161091  RH  045%=      5-min Rain = 0
KCA1 112205Z 35017G23KT 02/M09 A3017 RMK A01 T00181090  RH  045%=      5-min Rain = 0
KCA1 112206Z 33016KT 02/M09 A3017 RMK A01 T00171090  RH  045%=      5-min Rain = 0
KCA1 112207Z 33017KT 02/M09 A3017 RMK A01 T00181090  RH  045%=      5-min Rain = 0
KCA1 112208Z 34018KT 02/M09 A3017 RMK A01 T00171090  RH  045%=      5-min Rain = 0
KCA1 112209Z 33018G26KT 02/M09 A3017 RMK A01 T00171090  RH  045%=      5-min Rain = 0
KCA1 112210Z 34021KT 02/M09 A3017 RMK A01 T00171091  RH  045%=      5-min Rain = 0
KCA1 112211Z 34020KT 02/M09 A3017 RMK A01 T00161091  RH  045%=      5-min Rain = 0
KCA1 112212Z 34019KT 02/M09 A3017 RMK A01 T00161090  RH  045%=      5-min Rain = 0
KCA1 112213Z 34019KT 02/M09 A3017 RMK A01 T00151091  RH  045%=      5-min Rain = 0
KCA1 112214Z 34015KT 02/M09 A3017 RMK A01 T00151090  RH  045%=      5-min Rain = 0
KCA1 112215Z 34017G22KT 02/M09 A3017 RMK A01 T00171089  RH  045%=      5-min Rain = 0
KCA1 112216Z 34017G22KT 02/M09 A3017 RMK A01 T00171090  RH  045%=      5-min Rain = 0
KCA1 112217Z 34017KT 02/M09 A3017 RMK A01 T00171090  RH  045%=      5-min Rain = 0
KCA1 112218Z 35014G21KT 02/M09 A3017 RMK A01 T00171090  RH  045%=      5-min Rain = 0
KCA1 112219Z 35020G26KT 02/M09 A3017 RMK A01 T00161090  RH  045%=      5-min Rain = 0
KCA1 112220Z 34013KT 02/M09 A3017 RMK A01 T00161090  RH  045%=      5-min Rain = 0
KCA1 112221Z 34018KT 02/M09 A3017 RMK A01 T00171089  RH  045%=      5-min Rain = 0
KCA1 112222Z 34016G21KT 02/M09 A3018 RMK A01 T00181090  RH  045%=      5-min Rain = 0
KCA1 112223Z 35015KT 02/M09 A3018 RMK A01 T00181090  RH  045%=      5-min Rain = 0
KCA1 112224Z 34018G23KT 02/M09 A3018 RMK A01 T00181090  RH  045%=      5-min Rain = 0
KCA1 112225Z 35018KT 02/M09 A3018 RMK A01 T00171091  RH  045%=      5-min Rain = 0
KCA1 112226Z 34017G22KT 02/M09 A3018 RMK A01 T00151091  RH  045%=      5-min Rain = 0
KCA1 112227Z 34016KT 02/M09 A3018 RMK A01 T00151091  RH  045%=      5-min Rain = 0
KCA1 112228Z 34018KT 02/M09 A3018 RMK A01 T00151091  RH  045%=      5-min Rain = 0
KCA1 112229Z 34019G24KT 02/M09 A3018 RMK A01 T00151091  RH  045%=      5-min Rain = 0
KCA1 112230Z 34020G25KT 02/M09 A3018 RMK A01 T00151091  RH  045%=      5-min Rain = 0
KCA1 112231Z 34020KT 02/M09 A3018 RMK A01 T00151091  RH  045%=      5-min Rain = 0
KCA1 112232Z 34017G23KT 01/M09 A3018 RMK A01 T00141091  RH  046%=      5-min Rain = 0
KCA1 112233Z 33019G24KT 01/M09 A3018 RMK A01 T00141091  RH  046%=      5-min Rain = 0
KCA1 112234Z 33019KT 02/M09 A3018 RMK A01 T00151091  RH  045%=      5-min Rain = 0
KCA1 112235Z 33018KT 01/M09 A3018 RMK A01 T00141091  RH  046%=      5-min Rain = 0
KCA1 112236Z 34017KT 01/M09 A3018 RMK A01 T00141090  RH  046%=      5-min Rain = 0
KCA1 112237Z 34017KT 01/M09 A3018 RMK A01 T00141090  RH  046%=      5-min Rain = 0
KCA1 112238Z 34018KT 01/M09 A3018 RMK A01 T00141090  RH  046%=      5-min Rain = 0
KCA1 112239Z 34017KT 01/M09 A3019 RMK A01 T00141089  RH  046%=      5-min Rain = 0
KCA1 112240Z 34016KT 01/M09 A3018 RMK A01 T00141089  RH  046%=      5-min Rain = 0
KCA1 112241Z 34016G21KT 01/M09 A3018 RMK A01 T00141089  RH  046%=      5-min Rain = 0
KCA1 112242Z 33020KT 01/M09 A3018 RMK A01 T00141089  RH  046%=      5-min Rain = 0
KCA1 112243Z 34020G25KT 01/M09 A3019 RMK A01 T00131089  RH  046%=      5-min Rain = 0
KCA1 112244Z 34018KT 01/M09 A3019 RMK A01 T00121090  RH  047%=      5-min Rain = 0
KCA1 112245Z 34015KT 01/M09 A3019 RMK A01 T00121089  RH  047%=      5-min Rain = 0
KCA1 112246Z 35016KT 01/M09 A3019 RMK A01 T00121089  RH  047%=      5-min Rain = 0
KCA1 112247Z 35016KT 01/M09 A3019 RMK A01 T00131089  RH  047%=      5-min Rain = 0
KCA1 112248Z 35015KT 01/M09 A3019 RMK A01 T00131089  RH  047%=      5-min Rain = 0
KCA1 112249Z 34015G20KT 01/M09 A3019 RMK A01 T00131089  RH  047%=      5-min Rain = 0
KCA1 112250Z 34015KT 01/M09 A302 RMK A01 T00131089  RH  046%=      5-min Rain = 0
KCA1 112251Z 34017KT 01/M09 A302 RMK A01 T00141089  RH  046%=      5-min Rain = 0
KCA1 112252Z 33019KT 01/M09 A302 RMK A01 T00131090  RH  046%=      5-min Rain = 0
KCA1 112253Z 35018G25KT 01/M09 A302 RMK A01 T00131091  RH  046%=      5-min Rain = 0
KCA1 112254Z 34018G23KT 01/M09 A302 RMK A01 T00121091  RH  046%=      5-min Rain = 0
KCA1 112255Z 34019KT 01/M09 A302 RMK A01 T00121091  RH  046%=      5-min Rain = 0
KCA1 112256Z 34018KT 01/M09 A302 RMK A01 T00121092  RH  046%=      5-min Rain = 0
KCA1 112257Z 34019KT 01/M09 A302 RMK A01 T00121092  RH  046%=      5-min Rain = 0
KCA1 112258Z 34016G21KT 01/M09 A302 RMK A01 T00111092  RH  046%=      5-min Rain = 0
KCA1 112259Z 34017KT 01/M09 A302 RMK A01 T00111091  RH  046%=      5-min Rain = 0
KCA1 112300Z 35018KT 01/M09 A302 RMK A01 T00111092  RH  046%=      5-min Rain = 0
KCA1 112301Z 34017KT 01/M09 A302 RMK A01 T00101092  RH  046%=      5-min Rain = 0
KCA1 112302Z 35017KT 01/M09 A302 RMK A01 T00101092  RH  046%=      5-min Rain = 0
KCA1 112303Z 35017KT 01/M09 A3021 RMK A01 T00101092  RH  046%=      5-min Rain = 0
KCA1 112304Z 35015G20KT 01/M09 A3021 RMK A01 T00091092  RH  047%=      5-min Rain = 0
KCA1 112305Z 35017KT 01/M09 A3021 RMK A01 T00101092  RH  047%=      5-min Rain = 0
KCA1 112306Z 35021KT 01/M09 A3021 RMK A01 T00091093  RH  046%=      5-min Rain = 0
KCA1 112307Z 35019KT 01/M09 A3021 RMK A01 T00091093  RH  046%=      5-min Rain = 0
KCA1 112308Z 34017KT 01/M09 A3021 RMK A01 T00081094  RH  047%=      5-min Rain = 0
KCA1 112309Z 35016KT 01/M09 A3021 RMK A01 T00081093  RH  047%=      5-min Rain = 0
KCA1 112310Z 35015G23KT 01/M09 A3021 RMK A01 T00081093  RH  047%=      5-min Rain = 0
KCA1 112311Z 35021KT 01/M09 A3021 RMK A01 T00071093  RH  047%=      5-min Rain = 0
KCA1 112312Z 34019KT 01/M09 A3021 RMK A01 T00071094  RH  047%=      5-min Rain = 0
KCA1 112313Z 35017KT 01/M09 A3021 RMK A01 T00071093  RH  047%=      5-min Rain = 0
KCA1 112314Z 35020KT 01/M09 A3021 RMK A01 T00071093  RH  047%=      5-min Rain = 0
KCA1 112315Z 35016KT 01/M09 A3021 RMK A01 T00061093  RH  047%=      5-min Rain = 0
KCA1 112316Z 35013KT 01/M09 A3021 RMK A01 T00061094  RH  047%=      5-min Rain = 0
KCA1 112317Z 35014KT 01/M09 A3021 RMK A01 T00061093  RH  047%=      5-min Rain = 0
KCA1 112318Z 35014KT 01/M09 A3021 RMK A01 T00051093  RH  048%=      5-min Rain = 0
KCA1 112319Z 35018KT 01/M09 A3021 RMK A01 T00051093  RH  048%=      5-min Rain = 0
KCA1 112320Z 35017KT 00/M09 A3021 RMK A01 T00041093  RH  048%=      5-min Rain = 0
KCA1 112321Z 35018KT 01/M09 A3021 RMK A01 T00051093  RH  048%=      5-min Rain = 0
KCA1 112322Z 35018KT 00/M09 A3021 RMK A01 T00041093  RH  048%=      5-min Rain = 0
KCA1 112323Z 35016KT 00/M09 A3021 RMK A01 T00041093  RH  048%=      5-min Rain = 0
KCA1 112324Z 35015KT 00/M09 A3021 RMK A01 T00041093  RH  048%=      5-min Rain = 0
KCA1 112325Z 35015KT 00/M09 A3021 RMK A01 T00031093  RH  048%=      5-min Rain = 0
KCA1 112326Z 35017KT 00/M09 A3021 RMK A01 T00031093  RH  049%=      5-min Rain = 0
KCA1 112327Z 35013KT 00/M09 A3021 RMK A01 T00031092  RH  049%=      5-min Rain = 0
KCA1 112328Z 35013KT 00/M09 A3021 RMK A01 T00021093  RH  049%=      5-min Rain = 0
KCA1 112329Z 35013KT 00/M09 A3021 RMK A01 T00011093  RH  049%=      5-min Rain = 0
KCA1 112330Z 36012KT 00/M09 A3021 RMK A01 T00011093  RH  049%=      5-min Rain = 0
KCA1 112331Z 36012KT 00/M09 A3021 RMK A01 T00011093  RH  049%=      5-min Rain = 0
KCA1 112332Z 35014KT 00/09 A3022 RMK A01 T00000-93  RH  050%=      5-min Rain = 0
KCA1 112333Z 35015KT 00/09 A3021 RMK A01 T00000-93  RH  050%=      5-min Rain = 0
KCA1 112334Z 36013KT 00/09 A3022 RMK A01 T00-00-93  RH  050%=      5-min Rain = 0
KCA1 112335Z 36015KT M00/M09 A3022 RMK A01 T10011093  RH  050%=      5-min Rain = 0
KCA1 112336Z 35013KT M00/M09 A3022 RMK A01 T10011093  RH  050%=      5-min Rain = 0
KCA1 112337Z 35014KT M00/M09 A3022 RMK A01 T10011093  RH  050%=      5-min Rain = 0
KCA1 112338Z 35013KT M00/M09 A3022 RMK A01 T10021093  RH  050%=      5-min Rain = 0
KCA1 112339Z 35014KT M00/M09 A3022 RMK A01 T10021094  RH  050%=      5-min Rain = 0
KCA1 112340Z 35013KT M00/M09 A3022 RMK A01 T10021093  RH  050%=      5-min Rain = 0
KCA1 112341Z 35014KT M00/M09 A3022 RMK A01 T10031093  RH  050%=      5-min Rain = 0
KCA1 112342Z 35014KT M00/M09 A3022 RMK A01 T10031094  RH  051%=      5-min Rain = 0
KCA1 112343Z 35016KT M00/M09 A3022 RMK A01 T10041094  RH  051%=      5-min Rain = 0
KCA1 112344Z 35014KT M00/M09 A3022 RMK A01 T10041094  RH  051%=      5-min Rain = 0
KCA1 112345Z 35012KT M00/M09 A3022 RMK A01 T10041093  RH  051%=      5-min Rain = 0
KCA1 112346Z 35014KT M01/M09 A3022 RMK A01 T10051094  RH  051%=      5-min Rain = 0
KCA1 112347Z 35012KT M01/M09 A3022 RMK A01 T10051094  RH  051%=      5-min Rain = 0
KCA1 112348Z 35013KT M01/M09 A3022 RMK A01 T10061094  RH  051%=      5-min Rain = 0
KCA1 112349Z 34013KT M01/M09 A3022 RMK A01 T10061094  RH  052%=      5-min Rain = 0
KCA1 112350Z 34012KT M01/M09 A3022 RMK A01 T10071094  RH  052%=      5-min Rain = 0
KCA1 112351Z 34013KT M01/M09 A3022 RMK A01 T10071094  RH  052%=      5-min Rain = 0
KCA1 112352Z 35012KT M01/M09 A3022 RMK A01 T10071093  RH  052%=      5-min Rain = 0
KCA1 112353Z 35014KT M01/M09 A3022 RMK A01 T10071093  RH  052%=      5-min Rain = 0
KCA1 112354Z 35013KT M01/M09 A3022 RMK A01 T10071093  RH  052%=      5-min Rain = 0
KCA1 112355Z 34012KT M01/M09 A3022 RMK A01 T10081093  RH  052%=      5-min Rain = 0
KCA1 112356Z 34011KT M01/M09 A3022 RMK A01 T10081094  RH  052%=      5-min Rain = 0
KCA1 112357Z 34011KT M01/M09 A3022 RMK A01 T10091094  RH  053%=      5-min Rain = 0
KCA1 112358Z 35009KT M01/M09 A3023 RMK A01 T10101094  RH  053%=      5-min Rain = 0
KCA1 112359Z 35009KT M01/M10 A3023 RMK A01 T10111095  RH  053%=      5-min Rain = 0
KCA1 120000Z 35009KT M01/M10 A3022 RMK A01 T10121095  RH  053%=      5-min Rain = 0
KCA1 120001Z 35010KT M01/M10 A3023 RMK A01 T10121095  RH  054%=      5-min Rain = 0
KCA1 120002Z 35009KT M01/M09 A3023 RMK A01 T10131094  RH  054%=      5-min Rain = 0
KCA1 120003Z 35010KT M01/M09 A3023 RMK A01 T10131094  RH  054%=      5-min Rain = 0
KCA1 120004Z 34011KT M01/M09 A3023 RMK A01 T10131094  RH  054%=      5-min Rain = 0
KCA1 120005Z 35010KT M01/M09 A3023 RMK A01 T10131094  RH  054%=      5-min Rain = 0
KCA1 120006Z 35010KT M01/M09 A3023 RMK A01 T10131094  RH  054%=      5-min Rain = 0
KCA1 120007Z 34010KT M01/M09 A3023 RMK A01 T10141094  RH  054%=      5-min Rain = 0
KCA1 120008Z 34009KT M01/M09 A3023 RMK A01 T10141094  RH  055%=      5-min Rain = 0
KCA1 120009Z 35009KT M02/M10 A3023 RMK A01 T10151095  RH  055%=      5-min Rain = 0
KCA1 120010Z 34010KT M02/M10 A3023 RMK A01 T10161095  RH  055%=      5-min Rain = 0
KCA1 120011Z 34011KT M02/M09 A3023 RMK A01 T10161094  RH  055%=      5-min Rain = 0
KCA1 120012Z 34012KT M02/M09 A3023 RMK A01 T10151093  RH  055%=      5-min Rain = 0
KCA1 120013Z 34012KT M02/M09 A3023 RMK A01 T10151093  RH  055%=      5-min Rain = 0
KCA1 120014Z 34012KT M02/M09 A3023 RMK A01 T10151093  RH  055%=      5-min Rain = 0
KCA1 120015Z 35012KT M02/M09 A3023 RMK A01 T10151093  RH  055%=      5-min Rain = 0
KCA1 120016Z 35011KT M02/M09 A3023 RMK A01 T10151093  RH  055%=      5-min Rain = 0
KCA1 120017Z 35010KT M02/M09 A3023 RMK A01 T10151093  RH  055%=      5-min Rain = 0
KCA1 120018Z 35010KT M02/M09 A3023 RMK A01 T10161094  RH  055%=      5-min Rain = 0
KCA1 120019Z 34010KT M02/M09 A3023 RMK A01 T10171094  RH  056%=      5-min Rain = 0
KCA1 120020Z 35010KT M02/M09 A3023 RMK A01 T10171094  RH  056%=      5-min Rain = 0
KCA1 120021Z 35009KT M02/M09 A3023 RMK A01 T10171094  RH  056%=      5-min Rain = 0
KCA1 120022Z 34010KT M02/M09 A3023 RMK A01 T10181093  RH  056%=      5-min Rain = 0
KCA1 120023Z 34010KT M02/M09 A3023 RMK A01 T10181094  RH  056%=      5-min Rain = 0
KCA1 120024Z 34009KT M02/M09 A3023 RMK A01 T10191093  RH  057%=      5-min Rain = 0
KCA1 120025Z 34009KT M02/M09 A3023 RMK A01 T10191093  RH  057%=      5-min Rain = 0
KCA1 120026Z 34010KT M02/M09 A3023 RMK A01 T10191094  RH  057%=      5-min Rain = 0
KCA1 120027Z 34010KT M02/M09 A3023 RMK A01 T10191093  RH  057%=      5-min Rain = 0
KCA1 120028Z 34010KT M02/M09 A3023 RMK A01 T10201093  RH  057%=      5-min Rain = 0
KCA1 120029Z 34010KT M02/M09 A3024 RMK A01 T10201093  RH  057%=      5-min Rain = 0
KCA1 120030Z 34012KT M02/M09 A3024 RMK A01 T10201093  RH  057%=      5-min Rain = 0
KCA1 120031Z 34009KT M02/M09 A3024 RMK A01 T10201092  RH  058%=      5-min Rain = 0
KCA1 120032Z 34009KT M02/M09 A3023 RMK A01 T10201093  RH  058%=      5-min Rain = 0
KCA1 120033Z 34008KT M02/M09 A3023 RMK A01 T10211094  RH  058%=      5-min Rain = 0
KCA1 120034Z 34009KT M02/M09 A3023 RMK A01 T10221094  RH  058%=      5-min Rain = 0
KCA1 120035Z 35009KT M02/M09 A3023 RMK A01 T10221093  RH  058%=      5-min Rain = 0
KCA1 120036Z 35010KT M02/M09 A3023 RMK A01 T10231093  RH  059%=      5-min Rain = 0
KCA1 120037Z 34009KT M02/M09 A3023 RMK A01 T10231093  RH  059%=      5-min Rain = 0
KCA1 120038Z 34010KT M02/M09 A3023 RMK A01 T10241094  RH  059%=      5-min Rain = 0
KCA1 120039Z 34009KT M02/M09 A3023 RMK A01 T10241093  RH  059%=      5-min Rain = 0
KCA1 120040Z 34008KT M03/M09 A3023 RMK A01 T10251093  RH  059%=      5-min Rain = 0
KCA1 120041Z 34009KT M03/M09 A3023 RMK A01 T10261094  RH  059%=      5-min Rain = 0
KCA1 120042Z 34009KT M03/M09 A3023 RMK A01 T10261094  RH  060%=      5-min Rain = 0
KCA1 120043Z 34007KT M03/M09 A3024 RMK A01 T10271094  RH  060%=      5-min Rain = 0
KCA1 120044Z 34008KT M03/M09 A3024 RMK A01 T10281094  RH  060%=      5-min Rain = 0
KCA1 120045Z 34007KT M03/M09 A3024 RMK A01 T10281094  RH  060%=      5-min Rain = 0
KCA1 120046Z 34008KT M03/M10 A3024 RMK A01 T10291095  RH  061%=      5-min Rain = 0
KCA1 120047Z 34007KT M03/M10 A3024 RMK A01 T10301095  RH  061%=      5-min Rain = 0
KCA1 120048Z 34008KT M03/M10 A3024 RMK A01 T10311095  RH  061%=      5-min Rain = 0
KCA1 120049Z 34008KT M03/M10 A3023 RMK A01 T10311095  RH  061%=      5-min Rain = 0
KCA1 120050Z 34008KT M03/M10 A3023 RMK A01 T10311095  RH  061%=      5-min Rain = 0
KCA1 120051Z 34008KT M03/M10 A3023 RMK A01 T10321095  RH  062%=      5-min Rain = 0
KCA1 120052Z 34008KT M03/M10 A3023 RMK A01 T10321095  RH  062%=      5-min Rain = 0
KCA1 120053Z 34007KT M03/M10 A3023 RMK A01 T10331095  RH  062%=      5-min Rain = 0
KCA1 120054Z 34008KT M03/M10 A3023 RMK A01 T10331095  RH  062%=      5-min Rain = 0
KCA1 120055Z 34008KT M03/M10 A3023 RMK A01 T10331095  RH  062%=      5-min Rain = 0
KCA1 120056Z 34008KT M03/M10 A3023 RMK A01 T10341095  RH  063%=      5-min Rain = 0
KCA1 120057Z 34008KT M03/M10 A3023 RMK A01 T10341095  RH  063%=      5-min Rain = 0
KCA1 120058Z 34008KT M04/M10 A3023 RMK A01 T10351095  RH  063%=      5-min Rain = 0
KCA1 120059Z 34008KT M04/M10 A3023 RMK A01 T10351095  RH  063%=      5-min Rain = 0
KCA1 120100Z 34008KT M03/M10 A3023 RMK A01 T10341095  RH  063%=      5-min Rain = 0
KCA1 120101Z 34008KT M03/M10 A3023 RMK A01 T10341095  RH  063%=      5-min Rain = 0
KCA1 120102Z 34008KT M04/M10 A3023 RMK A01 T10351095  RH  063%=      5-min Rain = 0
KCA1 120103Z 34008KT M04/M10 A3023 RMK A01 T10351095  RH  063%=      5-min Rain = 0
KCA1 120104Z 34008KT M04/M10 A3023 RMK A01 T10361096  RH  063%=      5-min Rain = 0
KCA1 120105Z 34008KT M04/M10 A3023 RMK A01 T10361095  RH  064%=      5-min Rain = 0
KCA1 120106Z 34007KT M04/M10 A3023 RMK A01 T10361095  RH  064%=      5-min Rain = 0
KCA1 120107Z 34008KT M04/M10 A3023 RMK A01 T10361095  RH  064%=      5-min Rain = 0
KCA1 120108Z 34008KT M04/M10 A3023 RMK A01 T10371095  RH  064%=      5-min Rain = 0
KCA1 120109Z 34008KT M04/M10 A3023 RMK A01 T10371095  RH  064%=      5-min Rain = 0
KCA1 120110Z 34007KT M04/M10 A3023 RMK A01 T10371095  RH  064%=      5-min Rain = 0
KCA1 120111Z 34007KT M04/M10 A3023 RMK A01 T10371095  RH  064%=      5-min Rain = 0
KCA1 120112Z 34007KT M04/M10 A3023 RMK A01 T10371095  RH  064%=      5-min Rain = 0
KCA1 120113Z 34008KT M04/M10 A3023 RMK A01 T10371095  RH  064%=      5-min Rain = 0
KCA1 120114Z 34007KT M04/M10 A3024 RMK A01 T10381095  RH  064%=      5-min Rain = 0
KCA1 120115Z 34007KT M04/M10 A3024 RMK A01 T10381095  RH  064%=      5-min Rain = 0
KCA1 120116Z 34007KT M04/M10 A3024 RMK A01 T10391096  RH  065%=      5-min Rain = 0
KCA1 120117Z 33006KT M04/M10 A3024 RMK A01 T10391096  RH  065%=      5-min Rain = 0
KCA1 120118Z 33007KT M04/M10 A3024 RMK A01 T10401097  RH  065%=      5-min Rain = 0
KCA1 120119Z 33007KT M04/M10 A3024 RMK A01 T10411097  RH  065%=      5-min Rain = 0
KCA1 120120Z 33007KT M04/M10 A3024 RMK A01 T10421097  RH  065%=      5-min Rain = 0
KCA1 120121Z 34007KT M04/M10 A3024 RMK A01 T10421097  RH  066%=      5-min Rain = 0
KCA1 120122Z 34007KT M04/M10 A3024 RMK A01 T10431097  RH  066%=      5-min Rain = 0
KCA1 120123Z 34007KT M04/M10 A3024 RMK A01 T10431097  RH  066%=      5-min Rain = 0
KCA1 120124Z 34008KT M04/M10 A3024 RMK A01 T10441097  RH  066%=      5-min Rain = 0
KCA1 120125Z 34008KT M04/M10 A3024 RMK A01 T10441096  RH  067%=      5-min Rain = 0
KCA1 120126Z 34008KT M04/M10 A3024 RMK A01 T10441096  RH  067%=      5-min Rain = 0
KCA1 120127Z 34008KT M04/M10 A3024 RMK A01 T10431096  RH  067%=      5-min Rain = 0
KCA1 120128Z 34009KT M04/M10 A3024 RMK A01 T10431096  RH  067%=      5-min Rain = 0
KCA1 120129Z 34008KT M04/M10 A3024 RMK A01 T10431096  RH  067%=      5-min Rain = 0
KCA1 120130Z 34008KT M05/M10 A3024 RMK A01 T10451097  RH  067%=      5-min Rain = 0
KCA1 120131Z 34008KT M05/M10 A3024 RMK A01 T10451097  RH  067%=      5-min Rain = 0
KCA1 120132Z 34008KT M05/M10 A3024 RMK A01 T10461097  RH  067%=      5-min Rain = 0
KCA1 120133Z 34009KT M05/M10 A3024 RMK A01 T10461097  RH  068%=      5-min Rain = 0
KCA1 120134Z 34009KT M05/M10 A3024 RMK A01 T10461096  RH  068%=      5-min Rain = 0
KCA1 120135Z 34009KT M05/M10 A3024 RMK A01 T10461097  RH  068%=      5-min Rain = 0
KCA1 120136Z 34009KT M05/M10 A3024 RMK A01 T10461096  RH  068%=      5-min Rain = 0
KCA1 120137Z 35010KT M05/M10 A3024 RMK A01 T10461096  RH  068%=      5-min Rain = 0
KCA1 120138Z 35009KT M05/M10 A3024 RMK A01 T10451095  RH  068%=      5-min Rain = 0
KCA1 120139Z 34009KT M05/M10 A3024 RMK A01 T10451095  RH  068%=      5-min Rain = 0
KCA1 120140Z 35010KT M05/M10 A3024 RMK A01 T10451095  RH  068%=      5-min Rain = 0
KCA1 120141Z 34010KT M05/M10 A3024 RMK A01 T10451095  RH  068%=      5-min Rain = 0
KCA1 120142Z 35010KT M04/M09 A3024 RMK A01 T10441094  RH  068%=      5-min Rain = 0
KCA1 120143Z 34010KT M04/M09 A3024 RMK A01 T10441094  RH  068%=      5-min Rain = 0
KCA1 120144Z 35009KT M04/M09 A3024 RMK A01 T10431094  RH  068%=      5-min Rain = 0
KCA1 120145Z 35008KT M04/M09 A3024 RMK A01 T10431094  RH  068%=      5-min Rain = 0
KCA1 120146Z 35009KT M04/M09 A3024 RMK A01 T10431094  RH  068%=      5-min Rain = 0
KCA1 120147Z 35009KT M04/M09 A3024 RMK A01 T10431094  RH  068%=      5-min Rain = 0
KCA1 120148Z 34009KT M04/M09 A3024 RMK A01 T10431094  RH  068%=      5-min Rain = 0
KCA1 120149Z 34008KT M04/M09 A3024 RMK A01 T10431094  RH  068%=      5-min Rain = 0
KCA1 120150Z 34008KT M04/M10 A3024 RMK A01 T10441095  RH  068%=      5-min Rain = 0
KCA1 120151Z 34007KT M05/M10 A3024 RMK A01 T10451095  RH  068%=      5-min Rain = 0
KCA1 120152Z 34007KT M05/M10 A3024 RMK A01 T10461096  RH  068%=      5-min Rain = 0
KCA1 120153Z 33006KT M05/M10 A3024 RMK A01 T10471097  RH  068%=      5-min Rain = 0
KCA1 120154Z 33006KT M05/M10 A3024 RMK A01 T10481097  RH  069%=      5-min Rain = 0
KCA1 120155Z 34006KT M05/M10 A3024 RMK A01 T10481096  RH  069%=      5-min Rain = 0
KCA1 120156Z 33006KT M05/M10 A3024 RMK A01 T10491097  RH  069%=      5-min Rain = 0
KCA1 120157Z 34006KT M05/M10 A3024 RMK A01 T10491096  RH  069%=      5-min Rain = 0
KCA1 120158Z 34006KT M05/M10 A3024 RMK A01 T10491096  RH  069%=      5-min Rain = 0
KCA1 120159Z 34007KT M05/M10 A3024 RMK A01 T10491096  RH  070%=      5-min Rain = 0
KCA1 120200Z 34007KT M05/M10 A3024 RMK A01 T10491096  RH  070%=      5-min Rain = 0
KCA1 120201Z 34007KT M05/M10 A3024 RMK A01 T10491096  RH  070%=      5-min Rain = 0
KCA1 120202Z 34007KT M05/M10 A3024 RMK A01 T10501096  RH  070%=      5-min Rain = 0
KCA1 120203Z 34007KT M05/M10 A3024 RMK A01 T10501097  RH  070%=      5-min Rain = 0
KCA1 120204Z 34006KT M05/M10 A3024 RMK A01 T10511097  RH  070%=      5-min Rain = 0
KCA1 120205Z 34007KT M05/M10 A3024 RMK A01 T10511097  RH  070%=      5-min Rain = 0
KCA1 120206Z 34007KT M05/M10 A3024 RMK A01 T10511097  RH  070%=      5-min Rain = 0
KCA1 120207Z 34007KT M05/M10 A3024 RMK A01 T10521097  RH  070%=      5-min Rain = 0
KCA1 120208Z 35007KT M05/M10 A3024 RMK A01 T10511097  RH  070%=      5-min Rain = 0
KCA1 120209Z 35007KT M05/M10 A3024 RMK A01 T10521097  RH  070%=      5-min Rain = 0
KCA1 120210Z 35006KT M05/M10 A3024 RMK A01 T10521097  RH  070%=      5-min Rain = 0
KCA1 120211Z 35007KT M05/M10 A3024 RMK A01 T10531098  RH  070%=      5-min Rain = 0
KCA1 120212Z 35007KT M05/M10 A3024 RMK A01 T10541099  RH  071%=      5-min Rain = 0
KCA1 120213Z 35007KT M05/M10 A3025 RMK A01 T10541099  RH  071%=      5-min Rain = 0
KCA1 120214Z 35008KT M06/M10 A3025 RMK A01 T10551099  RH  071%=      5-min Rain = 0
KCA1 120215Z 34008KT M06/M10 A3025 RMK A01 T10551099  RH  071%=      5-min Rain = 0
KCA1 120216Z 34008KT M06/M10 A3025 RMK A01 T10561099  RH  071%=      5-min Rain = 0
KCA1 120217Z 34007KT M06/M10 A3025 RMK A01 T10571100  RH  072%=      5-min Rain = 0
KCA1 120218Z 34008KT M06/M10 A3025 RMK A01 T10571100  RH  072%=      5-min Rain = 0
KCA1 120219Z 34008KT M06/M10 A3025 RMK A01 T10591101  RH  072%=      5-min Rain = 0
KCA1 120220Z 34008KT M06/M10 A3025 RMK A01 T10591101  RH  072%=      5-min Rain = 0
KCA1 120221Z 34009KT M06/M10 A3025 RMK A01 T10591100  RH  073%=      5-min Rain = 0
KCA1 120222Z 34009KT M06/M10 A3025 RMK A01 T10591100  RH  073%=      5-min Rain = 0
KCA1 120223Z 35009KT M06/M10 A3024 RMK A01 T10601100  RH  073%=      5-min Rain = 0
KCA1 120224Z 35009KT M06/M10 A3024 RMK A01 T10601100  RH  073%=      5-min Rain = 0
KCA1 120225Z 35010KT M06/M10 A3024 RMK A01 T10591100  RH  073%=      5-min Rain = 0
KCA1 120226Z 35010KT M06/M10 A3025 RMK A01 T10591100  RH  073%=      5-min Rain = 0
KCA1 120227Z 35009KT M06/M10 A3025 RMK A01 T10601100  RH  073%=      5-min Rain = 0
KCA1 120228Z 34009KT M06/M10 A3025 RMK A01 T10601101  RH  073%=      5-min Rain = 0
KCA1 120229Z 35009KT M06/M10 A3025 RMK A01 T10601100  RH  073%=      5-min Rain = 0
KCA1 120230Z 34009KT M06/M10 A3025 RMK A01 T10601100  RH  073%=      5-min Rain = 0
KCA1 120231Z 34009KT M06/M10 A3025 RMK A01 T10601100  RH  073%=      5-min Rain = 0
KCA1 120232Z 34008KT M06/M10 A3025 RMK A01 T10601100  RH  073%=      5-min Rain = 0
KCA1 120233Z 35009KT M06/M10 A3025 RMK A01 T10591100  RH  073%=      5-min Rain = 0
KCA1 120234Z 35008KT M06/M10 A3025 RMK A01 T10591100  RH  073%=      5-min Rain = 0
KCA1 120235Z 35009KT M06/M10 A3025 RMK A01 T10591100  RH  073%=      5-min Rain = 0
KCA1 120236Z 35008KT M06/M10 A3025 RMK A01 T10591100  RH  073%=      5-min Rain = 0
KCA1 120237Z 35008KT M06/M10 A3025 RMK A01 T10601100  RH  073%=      5-min Rain = 0
KCA1 120238Z 35008KT M06/M10 A3025 RMK A01 T10601101  RH  073%=      5-min Rain = 0
KCA1 120239Z 34008KT M06/M10 A3025 RMK A01 T10611101  RH  073%=      5-min Rain = 0
KCA1 120240Z 34008KT M06/M10 A3025 RMK A01 T10611102  RH  073%=      5-min Rain = 0
KCA1 120241Z 34008KT M06/M10 A3026 RMK A01 T10621102  RH  073%=      5-min Rain = 0
KCA1 120242Z 33008KT M06/M10 A3026 RMK A01 T10631103  RH  074%=      5-min Rain = 0
KCA1 120243Z 33007KT M06/M10 A3026 RMK A01 T10641103  RH  074%=      5-min Rain = 0
KCA1 120244Z 33007KT M06/M10 A3026 RMK A01 T10641103  RH  074%=      5-min Rain = 0
KCA1 120245Z 34008KT M07/M10 A3026 RMK A01 T10651103  RH  074%=      5-min Rain = 0
KCA1 120246Z 34008KT M07/M10 A3026 RMK A01 T10651103  RH  075%=      5-min Rain = 0
KCA1 120247Z 34008KT M07/M10 A3025 RMK A01 T10661103  RH  075%=      5-min Rain = 0
KCA1 120248Z 34008KT M07/M10 A3025 RMK A01 T10661102  RH  075%=      5-min Rain = 0
KCA1 120249Z 35008KT M07/M10 A3025 RMK A01 T10651102  RH  075%=      5-min Rain = 0
KCA1 120250Z 35009KT M07/M10 A3025 RMK A01 T10651102  RH  075%=      5-min Rain = 0
KCA1 120251Z 35008KT M07/M10 A3025 RMK A01 T10651102  RH  075%=      5-min Rain = 0
KCA1 120252Z 35008KT M07/M10 A3025 RMK A01 T10651102  RH  075%=      5-min Rain = 0
KCA1 120253Z 35008KT M07/M10 A3025 RMK A01 T10651102  RH  075%=      5-min Rain = 0
KCA1 120254Z 35008KT M07/M10 A3025 RMK A01 T10651102  RH  075%=      5-min Rain = 0
KCA1 120255Z 34007KT M06/M10 A3025 RMK A01 T10641101  RH  075%=      5-min Rain = 0
KCA1 120256Z 34007KT M06/M10 A3026 RMK A01 T10641102  RH  075%=      5-min Rain = 0
KCA1 120257Z 34007KT M06/M10 A3026 RMK A01 T10641102  RH  075%=      5-min Rain = 0
KCA1 120258Z 34007KT M07/M10 A3026 RMK A01 T10651102  RH  075%=      5-min Rain = 0
KCA1 120259Z 34007KT M07/M10 A3026 RMK A01 T10651102  RH  075%=      5-min Rain = 0
KCA1 120300Z 34007KT M07/M10 A3026 RMK A01 T10651102  RH  075%=      5-min Rain = 0
KCA1 120301Z 34006KT M07/M10 A3026 RMK A01 T10651102  RH  075%=      5-min Rain = 0
KCA1 120302Z 34005KT M07/M10 A3026 RMK A01 T10661103  RH  075%=      5-min Rain = 0
KCA1 120303Z 33005KT M07/M10 A3026 RMK A01 T10661103  RH  075%=      5-min Rain = 0
KCA1 120304Z 33004KT M07/M10 A3026 RMK A01 T10671103  RH  075%=      5-min Rain = 0
KCA1 120305Z 32004KT M07/M10 A3026 RMK A01 T10681104  RH  075%=      5-min Rain = 0
KCA1 120306Z 32004KT M07/M10 A3026 RMK A01 T10681104  RH  076%=      5-min Rain = 0
KCA1 120307Z 32004KT M07/M10 A3026 RMK A01 T10681103  RH  076%=      5-min Rain = 0
KCA1 120308Z 33004KT M07/M10 A3026 RMK A01 T10681103  RH  076%=      5-min Rain = 0
KCA1 120309Z 33004KT M07/M10 A3026 RMK A01 T10681103  RH  076%=      5-min Rain = 0
KCA1 120310Z 34003KT M07/M10 A3026 RMK A01 T10681103  RH  076%=      5-min Rain = 0
KCA1 120311Z 34003KT M07/M10 A3027 RMK A01 T10681102  RH  076%=      5-min Rain = 0
KCA1 120312Z 34003KT M07/M10 A3027 RMK A01 T10681103  RH  076%=      5-min Rain = 0
KCA1 120313Z 34003KT M07/M10 A3027 RMK A01 T10681103  RH  076%=      5-min Rain = 0
KCA1 120314Z 34003KT M07/M10 A3027 RMK A01 T10681103  RH  076%=      5-min Rain = 0
KCA1 120315Z 34003KT M07/M10 A3027 RMK A01 T10681103  RH  076%=      5-min Rain = 0
KCA1 120316Z 34004KT M07/M10 A3027 RMK A01 T10681103  RH  076%=      5-min Rain = 0
KCA1 120317Z 34004KT M07/M10 A3027 RMK A01 T10681103  RH  076%=      5-min Rain = 0
KCA1 120318Z 34004KT M07/M10 A3026 RMK A01 T10681102  RH  077%=      5-min Rain = 0
KCA1 120319Z 34004KT M07/M10 A3026 RMK A01 T10681102  RH  077%=      5-min Rain = 0
KCA1 120320Z 35004KT M07/M10 A3026 RMK A01 T10671102  RH  077%=      5-min Rain = 0
KCA1 120321Z 35004KT M07/M10 A3026 RMK A01 T10671102  RH  076%=      5-min Rain = 0
KCA1 120322Z 35005KT M07/M10 A3026 RMK A01 T10671102  RH  076%=      5-min Rain = 0
KCA1 120323Z 34004KT M07/M10 A3026 RMK A01 T10671103  RH  076%=      5-min Rain = 0
KCA1 120324Z 34004KT M07/M10 A3026 RMK A01 T10671102  RH  076%=      5-min Rain = 0
KCA1 120325Z 33004KT M07/M10 A3026 RMK A01 T10681102  RH  076%=      5-min Rain = 0
KCA1 120326Z 32004KT M07/M10 A3026 RMK A01 T10681103  RH  076%=      5-min Rain = 0
KCA1 120327Z 32003KT M07/M10 A3026 RMK A01 T10691104  RH  076%=      5-min Rain = 0
KCA1 120328Z 32003KT M07/M10 A3026 RMK A01 T10691104  RH  076%=      5-min Rain = 0
KCA1 120329Z 33003KT M07/M10 A3027 RMK A01 T10691103  RH  077%=      5-min Rain = 0
KCA1 120330Z 33003KT M07/M10 A3027 RMK A01 T10691102  RH  077%=      5-min Rain = 0
KCA1 120331Z 33003KT M07/M10 A3027 RMK A01 T10681101  RH  077%=      5-min Rain = 0
KCA1 120332Z 32003KT M07/M10 A3027 RMK A01 T10681101  RH  077%=      5-min Rain = 0
KCA1 120333Z 32003KT M07/M10 A3027 RMK A01 T10671101  RH  077%=      5-min Rain = 0
KCA1 120334Z 31003KT M07/M10 A3027 RMK A01 T10661100  RH  077%=      5-min Rain = 0
KCA1 120335Z 28002KT M07/M10 A3027 RMK A01 T10651100  RH  077%=      5-min Rain = 0
KCA1 120336Z 26002KT M07/M10 A3027 RMK A01 T10661101  RH  076%=      5-min Rain = 0
KCA1 120337Z 25002KT M07/M10 A3027 RMK A01 T10661101  RH  076%=      5-min Rain = 0
KCA1 120338Z 23002KT M07/M10 A3027 RMK A01 T10671102  RH  076%=      5-min Rain = 0
KCA1 120339Z 23002KT M07/M10 A3027 RMK A01 T10681101  RH  077%=      5-min Rain = 0
KCA1 120340Z 22002KT M07/M10 A3027 RMK A01 T10681102  RH  077%=      5-min Rain = 0
KCA1 120341Z 22002KT M07/M10 A3027 RMK A01 T10701102  RH  078%=      5-min Rain = 0
KCA1 120342Z 22002KT M07/M10 A3027 RMK A01 T10701102  RH  078%=      5-min Rain = 0
KCA1 120343Z 23002KT M07/M10 A3027 RMK A01 T10711101  RH  079%=      5-min Rain = 0
KCA1 120344Z 24002KT M07/M10 A3027 RMK A01 T10711101  RH  079%=      5-min Rain = 0
KCA1 120345Z 25002KT M07/M10 A3027 RMK A01 T10711101  RH  079%=      5-min Rain = 0
KCA1 120346Z 26002KT M07/M10 A3027 RMK A01 T10711100  RH  079%=      5-min Rain = 0
KCA1 120347Z 26001KT M07/M10 A3027 RMK A01 T10711100  RH  079%=      5-min Rain = 0
KCA1 120348Z 26001KT M07/M10 A3027 RMK A01 T10711100  RH  079%=      5-min Rain = 0
KCA1 120349Z 25001KT M07/M10 A3027 RMK A01 T10711100  RH  079%=      5-min Rain = 0
KCA1 120350Z 24001KT M07/M10 A3027 RMK A01 T10711100  RH  079%=      5-min Rain = 0
KCA1 120351Z 29000KT M07/M10 A3027 RMK A01 T10711100  RH  079%=      5-min Rain = 0
KCA1 120352Z 00000KT M07/M10 A3027 RMK A01 T10701100  RH  079%=      5-min Rain = 0
KCA1 120353Z 00000KT M07/M10 A3026 RMK A01 T10711101  RH  079%=      5-min Rain = 0
KCA1 120354Z 00000KT M07/M10 A3026 RMK A01 T10721103  RH  078%=      5-min Rain = 0
KCA1 120355Z 34000KT M07/M10 A3026 RMK A01 T10731103  RH  079%=      5-min Rain = 0
KCA1 120356Z 31001KT M07/M10 A3026 RMK A01 T10731103  RH  079%=      5-min Rain = 0
KCA1 120357Z 27000KT M07/M10 A3026 RMK A01 T10731102  RH  080%=      5-min Rain = 0
KCA1 120358Z 26001KT M07/M10 A3027 RMK A01 T10731102  RH  080%=      5-min Rain = 0
KCA1 120359Z 26001KT M07/M10 A3027 RMK A01 T10731101  RH  080%=      5-min Rain = 0
KCA1 120400Z 25002KT M07/M10 A3027 RMK A01 T10721101  RH  080%=      5-min Rain = 0
KCA1 120401Z 25002KT M07/M10 A3027 RMK A01 T10721101  RH  080%=      5-min Rain = 0
KCA1 120402Z 25003KT M07/M10 A3027 RMK A01 T10721100  RH  080%=      5-min Rain = 0
KCA1 120403Z 25003KT M07/M10 A3027 RMK A01 T10711099  RH  080%=      5-min Rain = 0
KCA1 120404Z 26003KT M07/M10 A3027 RMK A01 T10701098  RH  081%=      5-min Rain = 0
KCA1 120405Z 26003KT M07/M10 A3027 RMK A01 T10701098  RH  080%=      5-min Rain = 0
KCA1 120406Z 27003KT M07/M10 A3027 RMK A01 T10691098  RH  080%=      5-min Rain = 0
KCA1 120407Z 27003KT M07/M10 A3027 RMK A01 T10691098  RH  080%=      5-min Rain = 0
KCA1 120408Z 26003KT M07/M10 A3027 RMK A01 T10691098  RH  080%=      5-min Rain = 0
KCA1 120409Z 26003KT M07/M10 A3027 RMK A01 T10691099  RH  079%=      5-min Rain = 0
KCA1 120410Z 26003KT M07/M10 A3027 RMK A01 T10681098  RH  079%=      5-min Rain = 0
KCA1 120411Z 26003KT M07/M10 A3027 RMK A01 T10681098  RH  079%=      5-min Rain = 0
KCA1 120412Z 26003KT M07/M10 A3027 RMK A01 T10691099  RH  079%=      5-min Rain = 0
KCA1 120413Z 26003KT M07/M10 A3027 RMK A01 T10701101  RH  079%=      5-min Rain = 0
KCA1 120414Z 26004KT M07/M10 A3027 RMK A01 T10701100  RH  079%=      5-min Rain = 0
KCA1 120415Z 26004KT M07/M10 A3027 RMK A01 T10691098  RH  080%=      5-min Rain = 0
KCA1 120416Z 27004KT M07/M10 A3027 RMK A01 T10691098  RH  080%=      5-min Rain = 0
KCA1 120417Z 27003KT M07/M10 A3027 RMK A01 T10691098  RH  080%=      5-min Rain = 0
KCA1 120418Z 28004KT M07/M10 A3028 RMK A01 T10681098  RH  079%=      5-min Rain = 0
KCA1 120419Z 29003KT M07/M10 A3028 RMK A01 T10671097  RH  079%=      5-min Rain = 0
KCA1 120420Z 29003KT M07/M10 A3028 RMK A01 T10681099  RH  078%=      5-min Rain = 0
KCA1 120421Z 31002KT M07/M10 A3028 RMK A01 T10701102  RH  078%=      5-min Rain = 0
KCA1 120422Z 31004KT M07/M10 A3028 RMK A01 T10701102  RH  078%=      5-min Rain = 0
KCA1 120423Z 30004KT M07/M10 A3028 RMK A01 T10711101  RH  079%=      5-min Rain = 0
KCA1 120424Z 30004KT M07/M10 A3028 RMK A01 T10721102  RH  079%=      5-min Rain = 0
KCA1 120425Z 31004KT M07/M10 A3028 RMK A01 T10731102  RH  079%=      5-min Rain = 0
KCA1 120426Z 31004KT M07/M10 A3028 RMK A01 T10731102  RH  080%=      5-min Rain = 0
KCA1 120427Z 31004KT M07/M10 A3028 RMK A01 T10741104  RH  080%=      5-min Rain = 0
KCA1 120428Z 32004KT M08/M11 A3028 RMK A01 T10761105  RH  080%=      5-min Rain = 0
KCA1 120429Z 31004KT M08/M10 A3028 RMK A01 T10761104  RH  080%=      5-min Rain = 0
KCA1 120430Z 31004KT M08/M10 A3028 RMK A01 T10761104  RH  080%=      5-min Rain = 0
KCA1 120431Z 31004KT M08/M11 A3028 RMK A01 T10781106  RH  080%=      5-min Rain = 0
KCA1 120432Z 31004KT M08/M11 A3029 RMK A01 T10791107  RH  080%=      5-min Rain = 0
KCA1 120433Z 31004KT M08/M11 A3029 RMK A01 T10791106  RH  081%=      5-min Rain = 0
KCA1 120434Z 30004KT M08/M11 A3029 RMK A01 T10791105  RH  081%=      5-min Rain = 0
KCA1 120435Z 30004KT M08/M11 A3029 RMK A01 T10781105  RH  081%=      5-min Rain = 0
KCA1 120436Z 31003KT M08/M11 A3029 RMK A01 T10781105  RH  081%=      5-min Rain = 0
KCA1 120437Z 32004KT M08/M11 A3029 RMK A01 T10781105  RH  081%=      5-min Rain = 0
KCA1 120438Z 32003KT M08/M10 A3029 RMK A01 T10771104  RH  081%=      5-min Rain = 0
KCA1 120439Z 32003KT M08/M10 A3029 RMK A01 T10771104  RH  081%=      5-min Rain = 0
KCA1 120440Z 32004KT M08/M11 A3029 RMK A01 T10781106  RH  081%=      5-min Rain = 0
KCA1 120441Z 31004KT M08/M11 A3029 RMK A01 T10781106  RH  081%=      5-min Rain = 0
KCA1 120442Z 32004KT M08/M11 A3029 RMK A01 T10791106  RH  081%=      5-min Rain = 0
KCA1 120443Z 32004KT M08/M11 A3029 RMK A01 T10801106  RH  081%=      5-min Rain = 0
KCA1 120444Z 31004KT M08/M11 A3029 RMK A01 T10801106  RH  081%=      5-min Rain = 0
KCA1 120445Z 31004KT M08/M11 A3029 RMK A01 T10801106  RH  082%=      5-min Rain = 0
KCA1 120446Z 30004KT M08/M11 A303 RMK A01 T10801105  RH  082%=      5-min Rain = 0
KCA1 120447Z 30005KT M08/M11 A303 RMK A01 T10791105  RH  082%=      5-min Rain = 0
KCA1 120448Z 30004KT M08/M11 A303 RMK A01 T10791105  RH  082%=      5-min Rain = 0
KCA1 120449Z 30004KT M08/M11 A303 RMK A01 T10791105  RH  082%=      5-min Rain = 0
KCA1 120450Z 30004KT M08/M11 A303 RMK A01 T10791105  RH  082%=      5-min Rain = 0
KCA1 120451Z 30004KT M08/M11 A303 RMK A01 T10791106  RH  081%=      5-min Rain = 0
KCA1 120452Z 30004KT M08/M11 A303 RMK A01 T10801106  RH  081%=      5-min Rain = 0
KCA1 120453Z 30004KT M08/M11 A303 RMK A01 T10801107  RH  081%=      5-min Rain = 0
KCA1 120454Z 30004KT M08/M11 A303 RMK A01 T10811107  RH  082%=      5-min Rain = 0
KCA1 120455Z 30004KT M08/M11 A3029 RMK A01 T10811106  RH  082%=      5-min Rain = 0
KCA1 120456Z 31004KT M08/M11 A3029 RMK A01 T10801105  RH  082%=      5-min Rain = 0
KCA1 120457Z 31004KT M08/M11 A3029 RMK A01 T10801105  RH  082%=      5-min Rain = 0
KCA1 120458Z 32004KT M08/M11 A3029 RMK A01 T10801105  RH  082%=      5-min Rain = 0
KCA1 120459Z 32004KT M08/M11 A3029 RMK A01 T10801106  RH  081%=      5-min Rain = 0
KCA1 120500Z 32004KT M08/M11 A3029 RMK A01 T10811108  RH  081%=      5-min Rain = 0
KCA1 120501Z 32005KT M08/M11 A3029 RMK A01 T10821108  RH  081%=      5-min Rain = 0
KCA1 120502Z 32004KT M08/M11 A3029 RMK A01 T10821108  RH  081%=      5-min Rain = 0
KCA1 120503Z 32004KT M08/M11 A3029 RMK A01 T10821108  RH  082%=      5-min Rain = 0
KCA1 120504Z 32004KT M08/M11 A3029 RMK A01 T10821108  RH  082%=      5-min Rain = 0
KCA1 120505Z 33004KT M08/M11 A3029 RMK A01 T10811107  RH  082%=      5-min Rain = 0
KCA1 120506Z 33004KT M08/M11 A3029 RMK A01 T10831110  RH  081%=      5-min Rain = 0
KCA1 120507Z 33005KT M09/M11 A3029 RMK A01 T10851114  RH  080%=      5-min Rain = 0
KCA1 120508Z 32005KT M09/M11 A3029 RMK A01 T10861114  RH  081%=      5-min Rain = 0
KCA1 120509Z 33005KT M09/M11 A3029 RMK A01 T10861112  RH  081%=      5-min Rain = 0
KCA1 120510Z 33005KT M09/M11 A3029 RMK A01 T10861112  RH  082%=      5-min Rain = 0
KCA1 120511Z 33005KT M09/M11 A3029 RMK A01 T10861111  RH  082%=      5-min Rain = 0
KCA1 120512Z 34005KT M09/M11 A3029 RMK A01 T10861110  RH  082%=      5-min Rain = 0
KCA1 120513Z 34006KT M08/M11 A3029 RMK A01 T10841108  RH  083%=      5-min Rain = 0
KCA1 120514Z 33005KT M08/M11 A3029 RMK A01 T10831108  RH  082%=      5-min Rain = 0
KCA1 120515Z 33005KT M08/M11 A3029 RMK A01 T10831110  RH  081%=      5-min Rain = 0
KCA1 120516Z 33005KT M08/M11 A3029 RMK A01 T10831111  RH  080%=      5-min Rain = 0
KCA1 120517Z 32005KT M08/M11 A3029 RMK A01 T10831111  RH  080%=      5-min Rain = 0
KCA1 120518Z 33005KT M08/M11 A3029 RMK A01 T10831110  RH  081%=      5-min Rain = 0
KCA1 120519Z 33005KT M08/M11 A3029 RMK A01 T10811108  RH  081%=      5-min Rain = 0
KCA1 120520Z 33005KT M08/M11 A3029 RMK A01 T10791107  RH  081%=      5-min Rain = 0
KCA1 120521Z 34006KT M08/M11 A3029 RMK A01 T10791107  RH  080%=      5-min Rain = 0
KCA1 120522Z 34006KT M08/M11 A3029 RMK A01 T10781108  RH  080%=      5-min Rain = 0
KCA1 120523Z 33006KT M08/M11 A3029 RMK A01 T10781108  RH  079%=      5-min Rain = 0
KCA1 120524Z 33006KT M08/M11 A3029 RMK A01 T10781108  RH  079%=      5-min Rain = 0
KCA1 120525Z 33006KT M08/M11 A3029 RMK A01 T10781109  RH  078%=      5-min Rain = 0
KCA1 120526Z 33006KT M08/M11 A3029 RMK A01 T10791111  RH  078%=      5-min Rain = 0
KCA1 120527Z 33006KT M08/M11 A3029 RMK A01 T10811113  RH  078%=      5-min Rain = 0
KCA1 120528Z 32006KT M08/M11 A3029 RMK A01 T10821113  RH  078%=      5-min Rain = 0
KCA1 120529Z 32006KT M08/M11 A303 RMK A01 T10831113  RH  079%=      5-min Rain = 0
KCA1 120530Z 32006KT M08/M11 A303 RMK A01 T10841114  RH  079%=      5-min Rain = 0
KCA1 120531Z 31005KT M09/M12 A303 RMK A01 T10851115  RH  079%=      5-min Rain = 0
KCA1 120532Z 31005KT M09/M12 A303 RMK A01 T10861115  RH  080%=      5-min Rain = 0
KCA1 120533Z 32005KT M09/M11 A303 RMK A01 T10861114  RH  080%=      5-min Rain = 0
KCA1 120534Z 32005KT M09/M11 A3029 RMK A01 T10861113  RH  081%=      5-min Rain = 0
KCA1 120535Z 33005KT M09/M11 A3029 RMK A01 T10871114  RH  081%=      5-min Rain = 0
KCA1 120536Z 33005KT M09/M11 A3029 RMK A01 T10871114  RH  081%=      5-min Rain = 0
KCA1 120537Z 33005KT M09/M11 A3029 RMK A01 T10871114  RH  081%=      5-min Rain = 0
KCA1 120538Z 32005KT M09/M11 A3029 RMK A01 T10871114  RH  081%=      5-min Rain = 0
KCA1 120539Z 32005KT M09/M11 A3029 RMK A01 T10881114  RH  081%=      5-min Rain = 0
KCA1 120540Z 32005KT M09/M12 A3029 RMK A01 T10891116  RH  081%=      5-min Rain = 0
KCA1 120541Z 32005KT M09/M12 A3029 RMK A01 T10901117  RH  081%=      5-min Rain = 0
KCA1 120542Z 33006KT M09/M12 A3029 RMK A01 T10911117  RH  081%=      5-min Rain = 0
KCA1 120543Z 33006KT M09/M12 A3029 RMK A01 T10911116  RH  082%=      5-min Rain = 0
KCA1 120544Z 34006KT M09/M12 A3029 RMK A01 T10901115  RH  082%=      5-min Rain = 0
KCA1 120545Z 35006KT M09/M11 A3028 RMK A01 T10881112  RH  083%=      5-min Rain = 0
KCA1 120546Z 35007KT M09/M11 A3028 RMK A01 T10881113  RH  082%=      5-min Rain = 0
KCA1 120547Z 35006KT M09/M12 A3028 RMK A01 T10891115  RH  081%=      5-min Rain = 0
KCA1 120548Z 34006KT M09/M12 A3028 RMK A01 T10901116  RH  081%=      5-min Rain = 0
KCA1 120549Z 34006KT M09/M12 A3028 RMK A01 T10901116  RH  081%=      5-min Rain = 0
KCA1 120550Z 34006KT M09/M11 A3029 RMK A01 T10881114  RH  082%=      5-min Rain = 0
KCA1 120551Z 33006KT M09/M11 A3028 RMK A01 T10871113  RH  082%=      5-min Rain = 0
KCA1 120552Z 34006KT M09/M11 A3028 RMK A01 T10871113  RH  081%=      5-min Rain = 0
KCA1 120553Z 35006KT M09/M11 A3028 RMK A01 T10861112  RH  081%=      5-min Rain = 0
KCA1 120554Z 35006KT M09/M11 A3028 RMK A01 T10851112  RH  081%=      5-min Rain = 0
KCA1 120555Z 36006KT M09/M11 A3028 RMK A01 T10861114  RH  080%=      5-min Rain = 0
KCA1 120556Z 36006KT M09/M12 A3028 RMK A01 T10871115  RH  080%=      5-min Rain = 0
KCA1 120557Z 36006KT M09/M12 A3028 RMK A01 T10871115  RH  080%=      5-min Rain = 0
KCA1 120558Z 35006KT M09/M12 A3028 RMK A01 T10881116  RH  080%=      5-min Rain = 0
KCA1 120559Z 35007KT M09/M12 A3028 RMK A01 T10911119  RH  080%=      5-min Rain = 0

Page generated in 0.0857 seconds.